<?xml version="1.0" encoding="UTF-8" standalone="no" ?>
<gpx xmlns="http://www.topografix.com/GPX/1/1" xmlns:xsi="http://www.w3.org/2001/XMLSchema-instance" xsi:schemaLocation="http://www.topografix.com/GPX/1/1 http://www.topografix.com/GPX/1/1/gpx.xsd" version="1.1" creator="VisuGPX - https://www.visugpx.com">
  <metadata>
    <name>RSPFY-Bullion-Bonnelles</name>
    <desc><![CDATA[marche nordique au départ de Bullion et passant par Bonnelles.]]></desc>
  </metadata>
  <trk>
    <name><![CDATA[2022-09-29 08:54]]></name>
    <desc><![CDATA[<p>Heure de départ: 08:54 29 sept. 2022<br/>Heure d'arrivée: 11:19 29 sept. 2022<br/>Distance: 11,8 km (02:25)<br/>Temps déplacement: 02:09<br/>Vitesse moyenne: 4,86 km/h<br/>Vitesse moyenne mouv.: 5,45 km/h<br/>Vitesse Max.: 8,34 km/h<br/>Altitude minimale: 98 m<br/>Altitude maximale: 151 m<br/>Vitesse de montée: 230,1 m/h<br/>Vitesse de descente: -239,5 m/h<br/>Gain d'altitude: 282 m<br/>Perte d'altitude: -279 m<br/>Temps de montée: 01:13<br/>Temps de descente: 01:09<br/></p><hr align="center" width="480" style="height: 2px; width: 517px"/>]]></desc>
    <trkseg>
      <trkpt lat="48.62196" lon="2.00275">
        <ele>114.2</ele>
        <time>2022-09-29T06:54:40Z</time>
      </trkpt>
      <trkpt lat="48.62194" lon="2.00261">
        <ele>114.6</ele>
        <time>2022-09-29T06:55:36Z</time>
      </trkpt>
      <trkpt lat="48.62193" lon="2.00247">
        <ele>114.9</ele>
        <time>2022-09-29T06:56:06Z</time>
      </trkpt>
      <trkpt lat="48.62185" lon="2.0024">
        <ele>114.4</ele>
        <time>2022-09-29T06:56:16Z</time>
      </trkpt>
      <trkpt lat="48.62176" lon="2.00237">
        <ele>114</ele>
        <time>2022-09-29T06:56:23Z</time>
      </trkpt>
      <trkpt lat="48.62167" lon="2.00228">
        <ele>113.8</ele>
        <time>2022-09-29T06:56:30Z</time>
      </trkpt>
      <trkpt lat="48.62161" lon="2.00219">
        <ele>113.6</ele>
        <time>2022-09-29T06:56:37Z</time>
      </trkpt>
      <trkpt lat="48.62151" lon="2.00219">
        <ele>112.9</ele>
        <time>2022-09-29T06:56:44Z</time>
      </trkpt>
      <trkpt lat="48.62142" lon="2.00223">
        <ele>112.2</ele>
        <time>2022-09-29T06:56:59Z</time>
      </trkpt>
      <trkpt lat="48.62132" lon="2.00222">
        <ele>111.5</ele>
        <time>2022-09-29T06:57:06Z</time>
      </trkpt>
      <trkpt lat="48.62123" lon="2.00221">
        <ele>110.9</ele>
        <time>2022-09-29T06:57:20Z</time>
      </trkpt>
      <trkpt lat="48.62113" lon="2.00219">
        <ele>110.3</ele>
        <time>2022-09-29T06:57:26Z</time>
      </trkpt>
      <trkpt lat="48.62103" lon="2.00216">
        <ele>109.9</ele>
        <time>2022-09-29T06:57:32Z</time>
      </trkpt>
      <trkpt lat="48.62094" lon="2.00217">
        <ele>109.4</ele>
        <time>2022-09-29T06:57:39Z</time>
      </trkpt>
      <trkpt lat="48.62085" lon="2.00219">
        <ele>109.1</ele>
        <time>2022-09-29T06:57:45Z</time>
      </trkpt>
      <trkpt lat="48.62075" lon="2.00218">
        <ele>108.7</ele>
        <time>2022-09-29T06:57:52Z</time>
      </trkpt>
      <trkpt lat="48.62066" lon="2.0022">
        <ele>108.4</ele>
        <time>2022-09-29T06:57:59Z</time>
      </trkpt>
      <trkpt lat="48.62056" lon="2.0022">
        <ele>108</ele>
        <time>2022-09-29T06:58:06Z</time>
      </trkpt>
      <trkpt lat="48.62047" lon="2.00221">
        <ele>108</ele>
        <time>2022-09-29T06:58:13Z</time>
      </trkpt>
      <trkpt lat="48.62037" lon="2.00221">
        <ele>108</ele>
        <time>2022-09-29T06:58:20Z</time>
      </trkpt>
      <trkpt lat="48.62026" lon="2.00222">
        <ele>108</ele>
        <time>2022-09-29T06:58:27Z</time>
      </trkpt>
      <trkpt lat="48.62016" lon="2.00221">
        <ele>108</ele>
        <time>2022-09-29T06:58:33Z</time>
      </trkpt>
      <trkpt lat="48.62006" lon="2.00222">
        <ele>108</ele>
        <time>2022-09-29T06:58:40Z</time>
      </trkpt>
      <trkpt lat="48.61996" lon="2.00219">
        <ele>108</ele>
        <time>2022-09-29T06:58:46Z</time>
      </trkpt>
      <trkpt lat="48.61986" lon="2.00216">
        <ele>108</ele>
        <time>2022-09-29T06:58:54Z</time>
      </trkpt>
      <trkpt lat="48.61977" lon="2.00215">
        <ele>108</ele>
        <time>2022-09-29T06:59:00Z</time>
      </trkpt>
      <trkpt lat="48.61967" lon="2.00215">
        <ele>108.1</ele>
        <time>2022-09-29T06:59:06Z</time>
      </trkpt>
      <trkpt lat="48.61957" lon="2.00213">
        <ele>108.4</ele>
        <time>2022-09-29T06:59:12Z</time>
      </trkpt>
      <trkpt lat="48.61947" lon="2.00216">
        <ele>108.7</ele>
        <time>2022-09-29T06:59:18Z</time>
      </trkpt>
      <trkpt lat="48.61937" lon="2.00218">
        <ele>109.1</ele>
        <time>2022-09-29T06:59:25Z</time>
      </trkpt>
      <trkpt lat="48.61928" lon="2.00217">
        <ele>109.5</ele>
        <time>2022-09-29T06:59:31Z</time>
      </trkpt>
      <trkpt lat="48.61917" lon="2.00217">
        <ele>110</ele>
        <time>2022-09-29T06:59:37Z</time>
      </trkpt>
      <trkpt lat="48.61908" lon="2.00218">
        <ele>110.3</ele>
        <time>2022-09-29T06:59:43Z</time>
      </trkpt>
      <trkpt lat="48.61898" lon="2.00223">
        <ele>110.7</ele>
        <time>2022-09-29T06:59:49Z</time>
      </trkpt>
      <trkpt lat="48.61888" lon="2.00226">
        <ele>111</ele>
        <time>2022-09-29T06:59:56Z</time>
      </trkpt>
      <trkpt lat="48.61877" lon="2.00228">
        <ele>111.4</ele>
        <time>2022-09-29T07:00:03Z</time>
      </trkpt>
      <trkpt lat="48.61868" lon="2.0023">
        <ele>111.7</ele>
        <time>2022-09-29T07:00:09Z</time>
      </trkpt>
      <trkpt lat="48.61859" lon="2.00231">
        <ele>112.1</ele>
        <time>2022-09-29T07:00:14Z</time>
      </trkpt>
      <trkpt lat="48.61849" lon="2.0023">
        <ele>112.4</ele>
        <time>2022-09-29T07:00:21Z</time>
      </trkpt>
      <trkpt lat="48.6184" lon="2.00231">
        <ele>112.8</ele>
        <time>2022-09-29T07:00:27Z</time>
      </trkpt>
      <trkpt lat="48.61829" lon="2.00233">
        <ele>113.1</ele>
        <time>2022-09-29T07:00:33Z</time>
      </trkpt>
      <trkpt lat="48.61819" lon="2.0023">
        <ele>113.5</ele>
        <time>2022-09-29T07:00:39Z</time>
      </trkpt>
      <trkpt lat="48.61811" lon="2.00223">
        <ele>113.8</ele>
        <time>2022-09-29T07:00:45Z</time>
      </trkpt>
      <trkpt lat="48.61802" lon="2.00216">
        <ele>114.1</ele>
        <time>2022-09-29T07:00:54Z</time>
      </trkpt>
      <trkpt lat="48.61794" lon="2.0021">
        <ele>114.4</ele>
        <time>2022-09-29T07:01:01Z</time>
      </trkpt>
      <trkpt lat="48.61786" lon="2.00204">
        <ele>114.7</ele>
        <time>2022-09-29T07:01:08Z</time>
      </trkpt>
      <trkpt lat="48.61777" lon="2.00198">
        <ele>115</ele>
        <time>2022-09-29T07:01:14Z</time>
      </trkpt>
      <trkpt lat="48.61768" lon="2.00192">
        <ele>115.3</ele>
        <time>2022-09-29T07:01:20Z</time>
      </trkpt>
      <trkpt lat="48.61759" lon="2.0019">
        <ele>115.7</ele>
        <time>2022-09-29T07:01:26Z</time>
      </trkpt>
      <trkpt lat="48.61751" lon="2.00181">
        <ele>116</ele>
        <time>2022-09-29T07:01:34Z</time>
      </trkpt>
      <trkpt lat="48.61745" lon="2.00169">
        <ele>116.2</ele>
        <time>2022-09-29T07:01:41Z</time>
      </trkpt>
      <trkpt lat="48.6174" lon="2.00156">
        <ele>116.4</ele>
        <time>2022-09-29T07:01:49Z</time>
      </trkpt>
      <trkpt lat="48.61737" lon="2.00142">
        <ele>116.5</ele>
        <time>2022-09-29T07:01:55Z</time>
      </trkpt>
      <trkpt lat="48.61733" lon="2.00128">
        <ele>116.6</ele>
        <time>2022-09-29T07:02:01Z</time>
      </trkpt>
      <trkpt lat="48.61728" lon="2.00117">
        <ele>116.8</ele>
        <time>2022-09-29T07:02:07Z</time>
      </trkpt>
      <trkpt lat="48.61726" lon="2.00101">
        <ele>116.6</ele>
        <time>2022-09-29T07:02:14Z</time>
      </trkpt>
      <trkpt lat="48.61726" lon="2.00087">
        <ele>116.1</ele>
        <time>2022-09-29T07:02:20Z</time>
      </trkpt>
      <trkpt lat="48.61727" lon="2.00072">
        <ele>116</ele>
        <time>2022-09-29T07:02:29Z</time>
      </trkpt>
      <trkpt lat="48.61726" lon="2.00058">
        <ele>116</ele>
        <time>2022-09-29T07:02:35Z</time>
      </trkpt>
      <trkpt lat="48.61719" lon="2.00048">
        <ele>115.9</ele>
        <time>2022-09-29T07:02:42Z</time>
      </trkpt>
      <trkpt lat="48.61713" lon="2.00037">
        <ele>115.7</ele>
        <time>2022-09-29T07:02:49Z</time>
      </trkpt>
      <trkpt lat="48.61704" lon="2.0003">
        <ele>115.7</ele>
        <time>2022-09-29T07:02:56Z</time>
      </trkpt>
      <trkpt lat="48.61696" lon="2.00035">
        <ele>116.2</ele>
        <time>2022-09-29T07:03:04Z</time>
      </trkpt>
      <trkpt lat="48.61686" lon="2.00036">
        <ele>116.6</ele>
        <time>2022-09-29T07:03:13Z</time>
      </trkpt>
      <trkpt lat="48.61677" lon="2.00039">
        <ele>117</ele>
        <time>2022-09-29T07:03:20Z</time>
      </trkpt>
      <trkpt lat="48.61671" lon="2.00049">
        <ele>117.6</ele>
        <time>2022-09-29T07:03:28Z</time>
      </trkpt>
      <trkpt lat="48.61665" lon="2.0006">
        <ele>118</ele>
        <time>2022-09-29T07:03:36Z</time>
      </trkpt>
      <trkpt lat="48.61658" lon="2.0007">
        <ele>117.9</ele>
        <time>2022-09-29T07:03:44Z</time>
      </trkpt>
      <trkpt lat="48.61652" lon="2.00081">
        <ele>117.9</ele>
        <time>2022-09-29T07:03:51Z</time>
      </trkpt>
      <trkpt lat="48.61646" lon="2.00094">
        <ele>118</ele>
        <time>2022-09-29T07:03:58Z</time>
      </trkpt>
      <trkpt lat="48.61641" lon="2.00106">
        <ele>118</ele>
        <time>2022-09-29T07:04:07Z</time>
      </trkpt>
      <trkpt lat="48.61635" lon="2.00119">
        <ele>118</ele>
        <time>2022-09-29T07:04:15Z</time>
      </trkpt>
      <trkpt lat="48.61631" lon="2.00132">
        <ele>118</ele>
        <time>2022-09-29T07:04:22Z</time>
      </trkpt>
      <trkpt lat="48.61625" lon="2.00145">
        <ele>118</ele>
        <time>2022-09-29T07:04:28Z</time>
      </trkpt>
      <trkpt lat="48.61619" lon="2.00157">
        <ele>118</ele>
        <time>2022-09-29T07:04:35Z</time>
      </trkpt>
      <trkpt lat="48.61615" lon="2.0017">
        <ele>118.1</ele>
        <time>2022-09-29T07:04:43Z</time>
      </trkpt>
      <trkpt lat="48.6161" lon="2.00182">
        <ele>118.6</ele>
        <time>2022-09-29T07:04:49Z</time>
      </trkpt>
      <trkpt lat="48.61605" lon="2.00196">
        <ele>119</ele>
        <time>2022-09-29T07:04:57Z</time>
      </trkpt>
      <trkpt lat="48.61601" lon="2.00208">
        <ele>119.2</ele>
        <time>2022-09-29T07:05:04Z</time>
      </trkpt>
      <trkpt lat="48.61595" lon="2.00221">
        <ele>119.6</ele>
        <time>2022-09-29T07:05:11Z</time>
      </trkpt>
      <trkpt lat="48.6159" lon="2.00234">
        <ele>119.8</ele>
        <time>2022-09-29T07:05:17Z</time>
      </trkpt>
      <trkpt lat="48.61585" lon="2.00247">
        <ele>119.9</ele>
        <time>2022-09-29T07:05:23Z</time>
      </trkpt>
      <trkpt lat="48.61578" lon="2.00256">
        <ele>120.4</ele>
        <time>2022-09-29T07:05:31Z</time>
      </trkpt>
      <trkpt lat="48.6157" lon="2.00266">
        <ele>121</ele>
        <time>2022-09-29T07:05:39Z</time>
      </trkpt>
      <trkpt lat="48.61562" lon="2.00273">
        <ele>121.6</ele>
        <time>2022-09-29T07:05:46Z</time>
      </trkpt>
      <trkpt lat="48.61553" lon="2.00279">
        <ele>122.2</ele>
        <time>2022-09-29T07:05:52Z</time>
      </trkpt>
      <trkpt lat="48.61547" lon="2.00289">
        <ele>122.9</ele>
        <time>2022-09-29T07:06:00Z</time>
      </trkpt>
      <trkpt lat="48.61538" lon="2.00284">
        <ele>123.3</ele>
        <time>2022-09-29T07:06:07Z</time>
      </trkpt>
      <trkpt lat="48.61529" lon="2.00277">
        <ele>123.9</ele>
        <time>2022-09-29T07:06:14Z</time>
      </trkpt>
      <trkpt lat="48.61521" lon="2.00267">
        <ele>123.3</ele>
        <time>2022-09-29T07:06:22Z</time>
      </trkpt>
      <trkpt lat="48.61515" lon="2.00255">
        <ele>122.8</ele>
        <time>2022-09-29T07:06:30Z</time>
      </trkpt>
      <trkpt lat="48.61508" lon="2.00244">
        <ele>122.5</ele>
        <time>2022-09-29T07:06:36Z</time>
      </trkpt>
      <trkpt lat="48.61502" lon="2.00234">
        <ele>122.3</ele>
        <time>2022-09-29T07:06:42Z</time>
      </trkpt>
      <trkpt lat="48.61496" lon="2.00222">
        <ele>122.1</ele>
        <time>2022-09-29T07:06:49Z</time>
      </trkpt>
      <trkpt lat="48.61489" lon="2.00213">
        <ele>121.8</ele>
        <time>2022-09-29T07:06:55Z</time>
      </trkpt>
      <trkpt lat="48.61481" lon="2.00202">
        <ele>121.7</ele>
        <time>2022-09-29T07:07:02Z</time>
      </trkpt>
      <trkpt lat="48.61476" lon="2.00191">
        <ele>121.5</ele>
        <time>2022-09-29T07:07:09Z</time>
      </trkpt>
      <trkpt lat="48.6147" lon="2.00179">
        <ele>121.1</ele>
        <time>2022-09-29T07:07:16Z</time>
      </trkpt>
      <trkpt lat="48.61462" lon="2.0017">
        <ele>120.9</ele>
        <time>2022-09-29T07:07:23Z</time>
      </trkpt>
      <trkpt lat="48.61454" lon="2.0016">
        <ele>121</ele>
        <time>2022-09-29T07:07:30Z</time>
      </trkpt>
      <trkpt lat="48.61445" lon="2.00153">
        <ele>121</ele>
        <time>2022-09-29T07:07:37Z</time>
      </trkpt>
      <trkpt lat="48.61438" lon="2.00144">
        <ele>120.8</ele>
        <time>2022-09-29T07:07:44Z</time>
      </trkpt>
      <trkpt lat="48.61431" lon="2.00134">
        <ele>120.9</ele>
        <time>2022-09-29T07:07:51Z</time>
      </trkpt>
      <trkpt lat="48.61424" lon="2.00125">
        <ele>121.1</ele>
        <time>2022-09-29T07:07:57Z</time>
      </trkpt>
      <trkpt lat="48.61415" lon="2.00117">
        <ele>121.3</ele>
        <time>2022-09-29T07:08:03Z</time>
      </trkpt>
      <trkpt lat="48.61407" lon="2.00108">
        <ele>121.6</ele>
        <time>2022-09-29T07:08:09Z</time>
      </trkpt>
      <trkpt lat="48.61399" lon="2.001">
        <ele>121.9</ele>
        <time>2022-09-29T07:08:15Z</time>
      </trkpt>
      <trkpt lat="48.61391" lon="2.00091">
        <ele>122.1</ele>
        <time>2022-09-29T07:08:21Z</time>
      </trkpt>
      <trkpt lat="48.61383" lon="2.00084">
        <ele>122.6</ele>
        <time>2022-09-29T07:08:27Z</time>
      </trkpt>
      <trkpt lat="48.61375" lon="2.00077">
        <ele>123.2</ele>
        <time>2022-09-29T07:08:33Z</time>
      </trkpt>
      <trkpt lat="48.61368" lon="2.00069">
        <ele>123.8</ele>
        <time>2022-09-29T07:08:39Z</time>
      </trkpt>
      <trkpt lat="48.6136" lon="2.00059">
        <ele>124.2</ele>
        <time>2022-09-29T07:08:46Z</time>
      </trkpt>
      <trkpt lat="48.61352" lon="2.00052">
        <ele>124.4</ele>
        <time>2022-09-29T07:08:53Z</time>
      </trkpt>
      <trkpt lat="48.61343" lon="2.00044">
        <ele>124.4</ele>
        <time>2022-09-29T07:08:59Z</time>
      </trkpt>
      <trkpt lat="48.61336" lon="2.00035">
        <ele>124.3</ele>
        <time>2022-09-29T07:09:05Z</time>
      </trkpt>
      <trkpt lat="48.61328" lon="2.00027">
        <ele>124.3</ele>
        <time>2022-09-29T07:09:12Z</time>
      </trkpt>
      <trkpt lat="48.61319" lon="2.00019">
        <ele>124.4</ele>
        <time>2022-09-29T07:09:19Z</time>
      </trkpt>
      <trkpt lat="48.61311" lon="2.00011">
        <ele>124.4</ele>
        <time>2022-09-29T07:09:26Z</time>
      </trkpt>
      <trkpt lat="48.61304" lon="2.00001">
        <ele>124.2</ele>
        <time>2022-09-29T07:09:32Z</time>
      </trkpt>
      <trkpt lat="48.61295" lon="1.99992">
        <ele>124.2</ele>
        <time>2022-09-29T07:09:38Z</time>
      </trkpt>
      <trkpt lat="48.61287" lon="1.99985">
        <ele>124.3</ele>
        <time>2022-09-29T07:09:44Z</time>
      </trkpt>
      <trkpt lat="48.61279" lon="1.99977">
        <ele>124.3</ele>
        <time>2022-09-29T07:09:51Z</time>
      </trkpt>
      <trkpt lat="48.61272" lon="1.99968">
        <ele>123.7</ele>
        <time>2022-09-29T07:09:58Z</time>
      </trkpt>
      <trkpt lat="48.61264" lon="1.9996">
        <ele>123.1</ele>
        <time>2022-09-29T07:10:04Z</time>
      </trkpt>
      <trkpt lat="48.61256" lon="1.99951">
        <ele>122.5</ele>
        <time>2022-09-29T07:10:12Z</time>
      </trkpt>
      <trkpt lat="48.61247" lon="1.99944">
        <ele>121.8</ele>
        <time>2022-09-29T07:10:19Z</time>
      </trkpt>
      <trkpt lat="48.61239" lon="1.99938">
        <ele>120.8</ele>
        <time>2022-09-29T07:10:25Z</time>
      </trkpt>
      <trkpt lat="48.6123" lon="1.99934">
        <ele>120.1</ele>
        <time>2022-09-29T07:10:32Z</time>
      </trkpt>
      <trkpt lat="48.61223" lon="1.99922">
        <ele>119.2</ele>
        <time>2022-09-29T07:10:37Z</time>
      </trkpt>
      <trkpt lat="48.61214" lon="1.99918">
        <ele>119</ele>
        <time>2022-09-29T07:10:41Z</time>
      </trkpt>
      <trkpt lat="48.61205" lon="1.99912">
        <ele>119</ele>
        <time>2022-09-29T07:10:46Z</time>
      </trkpt>
      <trkpt lat="48.61196" lon="1.99907">
        <ele>119</ele>
        <time>2022-09-29T07:10:53Z</time>
      </trkpt>
      <trkpt lat="48.61187" lon="1.99902">
        <ele>119.4</ele>
        <time>2022-09-29T07:11:00Z</time>
      </trkpt>
      <trkpt lat="48.61177" lon="1.99898">
        <ele>119.8</ele>
        <time>2022-09-29T07:11:08Z</time>
      </trkpt>
      <trkpt lat="48.61169" lon="1.99892">
        <ele>120</ele>
        <time>2022-09-29T07:11:16Z</time>
      </trkpt>
      <trkpt lat="48.6116" lon="1.99887">
        <ele>120.6</ele>
        <time>2022-09-29T07:11:23Z</time>
      </trkpt>
      <trkpt lat="48.61151" lon="1.99885">
        <ele>121.5</ele>
        <time>2022-09-29T07:11:29Z</time>
      </trkpt>
      <trkpt lat="48.61142" lon="1.99881">
        <ele>122.1</ele>
        <time>2022-09-29T07:11:36Z</time>
      </trkpt>
      <trkpt lat="48.61132" lon="1.99877">
        <ele>122.7</ele>
        <time>2022-09-29T07:11:43Z</time>
      </trkpt>
      <trkpt lat="48.61123" lon="1.99874">
        <ele>123.1</ele>
        <time>2022-09-29T07:11:49Z</time>
      </trkpt>
      <trkpt lat="48.61113" lon="1.99869">
        <ele>123.4</ele>
        <time>2022-09-29T07:11:56Z</time>
      </trkpt>
      <trkpt lat="48.61103" lon="1.99864">
        <ele>123.5</ele>
        <time>2022-09-29T07:12:04Z</time>
      </trkpt>
      <trkpt lat="48.61095" lon="1.99862">
        <ele>123.6</ele>
        <time>2022-09-29T07:12:11Z</time>
      </trkpt>
      <trkpt lat="48.61085" lon="1.99857">
        <ele>123.5</ele>
        <time>2022-09-29T07:12:19Z</time>
      </trkpt>
      <trkpt lat="48.61076" lon="1.99852">
        <ele>123</ele>
        <time>2022-09-29T07:12:25Z</time>
      </trkpt>
      <trkpt lat="48.61067" lon="1.99848">
        <ele>122.5</ele>
        <time>2022-09-29T07:12:31Z</time>
      </trkpt>
      <trkpt lat="48.61058" lon="1.99843">
        <ele>122.1</ele>
        <time>2022-09-29T07:12:39Z</time>
      </trkpt>
      <trkpt lat="48.61048" lon="1.99841">
        <ele>121.5</ele>
        <time>2022-09-29T07:12:46Z</time>
      </trkpt>
      <trkpt lat="48.61039" lon="1.99835">
        <ele>120.5</ele>
        <time>2022-09-29T07:12:54Z</time>
      </trkpt>
      <trkpt lat="48.61029" lon="1.99832">
        <ele>120</ele>
        <time>2022-09-29T07:13:01Z</time>
      </trkpt>
      <trkpt lat="48.6102" lon="1.99829">
        <ele>119.7</ele>
        <time>2022-09-29T07:13:09Z</time>
      </trkpt>
      <trkpt lat="48.6101" lon="1.99827">
        <ele>119.5</ele>
        <time>2022-09-29T07:13:16Z</time>
      </trkpt>
      <trkpt lat="48.61001" lon="1.99826">
        <ele>119.5</ele>
        <time>2022-09-29T07:13:23Z</time>
      </trkpt>
      <trkpt lat="48.60992" lon="1.99832">
        <ele>120.5</ele>
        <time>2022-09-29T07:13:30Z</time>
      </trkpt>
      <trkpt lat="48.60983" lon="1.99838">
        <ele>121.8</ele>
        <time>2022-09-29T07:13:37Z</time>
      </trkpt>
      <trkpt lat="48.60973" lon="1.99844">
        <ele>123.1</ele>
        <time>2022-09-29T07:13:44Z</time>
      </trkpt>
      <trkpt lat="48.60966" lon="1.99854">
        <ele>124.4</ele>
        <time>2022-09-29T07:13:50Z</time>
      </trkpt>
      <trkpt lat="48.60956" lon="1.99852">
        <ele>124.6</ele>
        <time>2022-09-29T07:13:57Z</time>
      </trkpt>
      <trkpt lat="48.60946" lon="1.9985">
        <ele>124.7</ele>
        <time>2022-09-29T07:14:04Z</time>
      </trkpt>
      <trkpt lat="48.60936" lon="1.99848">
        <ele>124.4</ele>
        <time>2022-09-29T07:14:11Z</time>
      </trkpt>
      <trkpt lat="48.60926" lon="1.99846">
        <ele>124.1</ele>
        <time>2022-09-29T07:14:17Z</time>
      </trkpt>
      <trkpt lat="48.60917" lon="1.99842">
        <ele>123.6</ele>
        <time>2022-09-29T07:14:25Z</time>
      </trkpt>
      <trkpt lat="48.60907" lon="1.99839">
        <ele>123.1</ele>
        <time>2022-09-29T07:14:32Z</time>
      </trkpt>
      <trkpt lat="48.60897" lon="1.99834">
        <ele>122.3</ele>
        <time>2022-09-29T07:14:38Z</time>
      </trkpt>
      <trkpt lat="48.60887" lon="1.99829">
        <ele>121.5</ele>
        <time>2022-09-29T07:14:44Z</time>
      </trkpt>
      <trkpt lat="48.60878" lon="1.99825">
        <ele>121.5</ele>
        <time>2022-09-29T07:14:51Z</time>
      </trkpt>
      <trkpt lat="48.60869" lon="1.9982">
        <ele>121.2</ele>
        <time>2022-09-29T07:14:57Z</time>
      </trkpt>
      <trkpt lat="48.60859" lon="1.99816">
        <ele>121.2</ele>
        <time>2022-09-29T07:15:03Z</time>
      </trkpt>
      <trkpt lat="48.60849" lon="1.99812">
        <ele>121.2</ele>
        <time>2022-09-29T07:15:10Z</time>
      </trkpt>
      <trkpt lat="48.6084" lon="1.99807">
        <ele>120.9</ele>
        <time>2022-09-29T07:15:17Z</time>
      </trkpt>
      <trkpt lat="48.6083" lon="1.99801">
        <ele>120.2</ele>
        <time>2022-09-29T07:15:23Z</time>
      </trkpt>
      <trkpt lat="48.60821" lon="1.99796">
        <ele>119</ele>
        <time>2022-09-29T07:15:30Z</time>
      </trkpt>
      <trkpt lat="48.60811" lon="1.9979">
        <ele>117.9</ele>
        <time>2022-09-29T07:15:38Z</time>
      </trkpt>
      <trkpt lat="48.60801" lon="1.9979">
        <ele>117.7</ele>
        <time>2022-09-29T07:15:44Z</time>
      </trkpt>
      <trkpt lat="48.60791" lon="1.99789">
        <ele>117.4</ele>
        <time>2022-09-29T07:15:50Z</time>
      </trkpt>
      <trkpt lat="48.6078" lon="1.99787">
        <ele>117</ele>
        <time>2022-09-29T07:15:56Z</time>
      </trkpt>
      <trkpt lat="48.6077" lon="1.99786">
        <ele>117.1</ele>
        <time>2022-09-29T07:16:02Z</time>
      </trkpt>
      <trkpt lat="48.6076" lon="1.99786">
        <ele>117.4</ele>
        <time>2022-09-29T07:16:08Z</time>
      </trkpt>
      <trkpt lat="48.6075" lon="1.99787">
        <ele>117.7</ele>
        <time>2022-09-29T07:16:15Z</time>
      </trkpt>
      <trkpt lat="48.60739" lon="1.99786">
        <ele>118.1</ele>
        <time>2022-09-29T07:16:22Z</time>
      </trkpt>
      <trkpt lat="48.6073" lon="1.99785">
        <ele>118.4</ele>
        <time>2022-09-29T07:16:28Z</time>
      </trkpt>
      <trkpt lat="48.6072" lon="1.99783">
        <ele>118.6</ele>
        <time>2022-09-29T07:16:34Z</time>
      </trkpt>
      <trkpt lat="48.60711" lon="1.99784">
        <ele>118.6</ele>
        <time>2022-09-29T07:16:39Z</time>
      </trkpt>
      <trkpt lat="48.60701" lon="1.99786">
        <ele>118.9</ele>
        <time>2022-09-29T07:16:46Z</time>
      </trkpt>
      <trkpt lat="48.60691" lon="1.99787">
        <ele>118.8</ele>
        <time>2022-09-29T07:16:52Z</time>
      </trkpt>
      <trkpt lat="48.60681" lon="1.99786">
        <ele>118.1</ele>
        <time>2022-09-29T07:16:58Z</time>
      </trkpt>
      <trkpt lat="48.60672" lon="1.99782">
        <ele>117</ele>
        <time>2022-09-29T07:17:04Z</time>
      </trkpt>
      <trkpt lat="48.60664" lon="1.99775">
        <ele>115.7</ele>
        <time>2022-09-29T07:17:11Z</time>
      </trkpt>
      <trkpt lat="48.60656" lon="1.9977">
        <ele>115.1</ele>
        <time>2022-09-29T07:17:22Z</time>
      </trkpt>
      <trkpt lat="48.6065" lon="1.99755">
        <ele>113.6</ele>
        <time>2022-09-29T07:18:54Z</time>
      </trkpt>
      <trkpt lat="48.60641" lon="1.99763">
        <ele>114.4</ele>
        <time>2022-09-29T07:19:07Z</time>
      </trkpt>
      <trkpt lat="48.60632" lon="1.99764">
        <ele>114.4</ele>
        <time>2022-09-29T07:19:14Z</time>
      </trkpt>
      <trkpt lat="48.60622" lon="1.99761">
        <ele>114</ele>
        <time>2022-09-29T07:19:21Z</time>
      </trkpt>
      <trkpt lat="48.60612" lon="1.99763">
        <ele>114</ele>
        <time>2022-09-29T07:19:27Z</time>
      </trkpt>
      <trkpt lat="48.60603" lon="1.99762">
        <ele>113.7</ele>
        <time>2022-09-29T07:19:33Z</time>
      </trkpt>
      <trkpt lat="48.60593" lon="1.99759">
        <ele>113.2</ele>
        <time>2022-09-29T07:19:40Z</time>
      </trkpt>
      <trkpt lat="48.60584" lon="1.99757">
        <ele>112.7</ele>
        <time>2022-09-29T07:19:46Z</time>
      </trkpt>
      <trkpt lat="48.60574" lon="1.99753">
        <ele>111.9</ele>
        <time>2022-09-29T07:19:53Z</time>
      </trkpt>
      <trkpt lat="48.60564" lon="1.99749">
        <ele>111.3</ele>
        <time>2022-09-29T07:20:00Z</time>
      </trkpt>
      <trkpt lat="48.60555" lon="1.99747">
        <ele>110.8</ele>
        <time>2022-09-29T07:20:07Z</time>
      </trkpt>
      <trkpt lat="48.60545" lon="1.99752">
        <ele>110.8</ele>
        <time>2022-09-29T07:20:13Z</time>
      </trkpt>
      <trkpt lat="48.60537" lon="1.99762">
        <ele>110.9</ele>
        <time>2022-09-29T07:20:19Z</time>
      </trkpt>
      <trkpt lat="48.60533" lon="1.99775">
        <ele>111.2</ele>
        <time>2022-09-29T07:20:26Z</time>
      </trkpt>
      <trkpt lat="48.60527" lon="1.99789">
        <ele>110.5</ele>
        <time>2022-09-29T07:20:33Z</time>
      </trkpt>
      <trkpt lat="48.6052" lon="1.99799">
        <ele>109.4</ele>
        <time>2022-09-29T07:20:39Z</time>
      </trkpt>
      <trkpt lat="48.60517" lon="1.99814">
        <ele>108.6</ele>
        <time>2022-09-29T07:20:46Z</time>
      </trkpt>
      <trkpt lat="48.60513" lon="1.99828">
        <ele>108</ele>
        <time>2022-09-29T07:20:53Z</time>
      </trkpt>
      <trkpt lat="48.60512" lon="1.99843">
        <ele>107.5</ele>
        <time>2022-09-29T07:20:59Z</time>
      </trkpt>
      <trkpt lat="48.6051" lon="1.99858">
        <ele>106.8</ele>
        <time>2022-09-29T07:21:06Z</time>
      </trkpt>
      <trkpt lat="48.6051" lon="1.99873">
        <ele>106.7</ele>
        <time>2022-09-29T07:21:12Z</time>
      </trkpt>
      <trkpt lat="48.60509" lon="1.99887">
        <ele>106.6</ele>
        <time>2022-09-29T07:21:19Z</time>
      </trkpt>
      <trkpt lat="48.60509" lon="1.99902">
        <ele>106.6</ele>
        <time>2022-09-29T07:21:26Z</time>
      </trkpt>
      <trkpt lat="48.60505" lon="1.99916">
        <ele>106.4</ele>
        <time>2022-09-29T07:21:33Z</time>
      </trkpt>
      <trkpt lat="48.60501" lon="1.99929">
        <ele>106.5</ele>
        <time>2022-09-29T07:21:40Z</time>
      </trkpt>
      <trkpt lat="48.60494" lon="1.99941">
        <ele>106.7</ele>
        <time>2022-09-29T07:21:47Z</time>
      </trkpt>
      <trkpt lat="48.60488" lon="1.99953">
        <ele>106.9</ele>
        <time>2022-09-29T07:21:55Z</time>
      </trkpt>
      <trkpt lat="48.60481" lon="1.99963">
        <ele>107</ele>
        <time>2022-09-29T07:22:03Z</time>
      </trkpt>
      <trkpt lat="48.60475" lon="1.99974">
        <ele>107.2</ele>
        <time>2022-09-29T07:22:08Z</time>
      </trkpt>
      <trkpt lat="48.60467" lon="1.99984">
        <ele>107.6</ele>
        <time>2022-09-29T07:22:13Z</time>
      </trkpt>
      <trkpt lat="48.6046" lon="1.99994">
        <ele>108.1</ele>
        <time>2022-09-29T07:22:18Z</time>
      </trkpt>
      <trkpt lat="48.60454" lon="2.00007">
        <ele>108.7</ele>
        <time>2022-09-29T07:22:26Z</time>
      </trkpt>
      <trkpt lat="48.60447" lon="2.00018">
        <ele>108.8</ele>
        <time>2022-09-29T07:22:33Z</time>
      </trkpt>
      <trkpt lat="48.60443" lon="2.0003">
        <ele>109.1</ele>
        <time>2022-09-29T07:22:38Z</time>
      </trkpt>
      <trkpt lat="48.60438" lon="2.00043">
        <ele>109.7</ele>
        <time>2022-09-29T07:22:44Z</time>
      </trkpt>
      <trkpt lat="48.60435" lon="2.00056">
        <ele>110.3</ele>
        <time>2022-09-29T07:22:50Z</time>
      </trkpt>
      <trkpt lat="48.60432" lon="2.00071">
        <ele>110.1</ele>
        <time>2022-09-29T07:22:57Z</time>
      </trkpt>
      <trkpt lat="48.60426" lon="2.00083">
        <ele>109.7</ele>
        <time>2022-09-29T07:23:04Z</time>
      </trkpt>
      <trkpt lat="48.60423" lon="2.00096">
        <ele>109.5</ele>
        <time>2022-09-29T07:23:10Z</time>
      </trkpt>
      <trkpt lat="48.60421" lon="2.00111">
        <ele>109.4</ele>
        <time>2022-09-29T07:23:17Z</time>
      </trkpt>
      <trkpt lat="48.6042" lon="2.00125">
        <ele>109.9</ele>
        <time>2022-09-29T07:23:24Z</time>
      </trkpt>
      <trkpt lat="48.60418" lon="2.00141">
        <ele>110.2</ele>
        <time>2022-09-29T07:23:31Z</time>
      </trkpt>
      <trkpt lat="48.60417" lon="2.00155">
        <ele>110</ele>
        <time>2022-09-29T07:23:38Z</time>
      </trkpt>
      <trkpt lat="48.60415" lon="2.00171">
        <ele>109.8</ele>
        <time>2022-09-29T07:23:45Z</time>
      </trkpt>
      <trkpt lat="48.60414" lon="2.00185">
        <ele>109.7</ele>
        <time>2022-09-29T07:23:53Z</time>
      </trkpt>
      <trkpt lat="48.60412" lon="2.00198">
        <ele>109.5</ele>
        <time>2022-09-29T07:24:00Z</time>
      </trkpt>
      <trkpt lat="48.60411" lon="2.00213">
        <ele>109.3</ele>
        <time>2022-09-29T07:24:07Z</time>
      </trkpt>
      <trkpt lat="48.60411" lon="2.00228">
        <ele>109.2</ele>
        <time>2022-09-29T07:24:16Z</time>
      </trkpt>
      <trkpt lat="48.6041" lon="2.00243">
        <ele>108.7</ele>
        <time>2022-09-29T07:24:23Z</time>
      </trkpt>
      <trkpt lat="48.60411" lon="2.00257">
        <ele>108.6</ele>
        <time>2022-09-29T07:24:31Z</time>
      </trkpt>
      <trkpt lat="48.60413" lon="2.00272">
        <ele>108.6</ele>
        <time>2022-09-29T07:24:38Z</time>
      </trkpt>
      <trkpt lat="48.60413" lon="2.00287">
        <ele>108.3</ele>
        <time>2022-09-29T07:24:44Z</time>
      </trkpt>
      <trkpt lat="48.60415" lon="2.00302">
        <ele>108</ele>
        <time>2022-09-29T07:24:50Z</time>
      </trkpt>
      <trkpt lat="48.60415" lon="2.00316">
        <ele>107.9</ele>
        <time>2022-09-29T07:24:56Z</time>
      </trkpt>
      <trkpt lat="48.60414" lon="2.00331">
        <ele>107.8</ele>
        <time>2022-09-29T07:25:03Z</time>
      </trkpt>
      <trkpt lat="48.60412" lon="2.00345">
        <ele>107.3</ele>
        <time>2022-09-29T07:25:09Z</time>
      </trkpt>
      <trkpt lat="48.60408" lon="2.00358">
        <ele>106.8</ele>
        <time>2022-09-29T07:25:15Z</time>
      </trkpt>
      <trkpt lat="48.60402" lon="2.00368">
        <ele>106.3</ele>
        <time>2022-09-29T07:25:23Z</time>
      </trkpt>
      <trkpt lat="48.60395" lon="2.00379">
        <ele>106.1</ele>
        <time>2022-09-29T07:25:31Z</time>
      </trkpt>
      <trkpt lat="48.60386" lon="2.00387">
        <ele>105.9</ele>
        <time>2022-09-29T07:25:39Z</time>
      </trkpt>
      <trkpt lat="48.60377" lon="2.0039">
        <ele>105.6</ele>
        <time>2022-09-29T07:25:45Z</time>
      </trkpt>
      <trkpt lat="48.60368" lon="2.00394">
        <ele>105.4</ele>
        <time>2022-09-29T07:25:51Z</time>
      </trkpt>
      <trkpt lat="48.60359" lon="2.00387">
        <ele>105</ele>
        <time>2022-09-29T07:25:59Z</time>
      </trkpt>
      <trkpt lat="48.6035" lon="2.00387">
        <ele>105</ele>
        <time>2022-09-29T07:26:05Z</time>
      </trkpt>
      <trkpt lat="48.60341" lon="2.00385">
        <ele>104.9</ele>
        <time>2022-09-29T07:26:11Z</time>
      </trkpt>
      <trkpt lat="48.60332" lon="2.00384">
        <ele>104.9</ele>
        <time>2022-09-29T07:26:17Z</time>
      </trkpt>
      <trkpt lat="48.60323" lon="2.00379">
        <ele>105</ele>
        <time>2022-09-29T07:26:30Z</time>
      </trkpt>
      <trkpt lat="48.60313" lon="2.00378">
        <ele>105.3</ele>
        <time>2022-09-29T07:26:39Z</time>
      </trkpt>
      <trkpt lat="48.60303" lon="2.00378">
        <ele>105.5</ele>
        <time>2022-09-29T07:26:46Z</time>
      </trkpt>
      <trkpt lat="48.60293" lon="2.00378">
        <ele>105.2</ele>
        <time>2022-09-29T07:26:53Z</time>
      </trkpt>
      <trkpt lat="48.60283" lon="2.00377">
        <ele>104.8</ele>
        <time>2022-09-29T07:27:01Z</time>
      </trkpt>
      <trkpt lat="48.60274" lon="2.00375">
        <ele>104.4</ele>
        <time>2022-09-29T07:27:08Z</time>
      </trkpt>
      <trkpt lat="48.60264" lon="2.00375">
        <ele>104</ele>
        <time>2022-09-29T07:27:15Z</time>
      </trkpt>
      <trkpt lat="48.60255" lon="2.00376">
        <ele>103.7</ele>
        <time>2022-09-29T07:27:21Z</time>
      </trkpt>
      <trkpt lat="48.60245" lon="2.00376">
        <ele>103.4</ele>
        <time>2022-09-29T07:27:27Z</time>
      </trkpt>
      <trkpt lat="48.60239" lon="2.00386">
        <ele>103.5</ele>
        <time>2022-09-29T07:27:37Z</time>
      </trkpt>
      <trkpt lat="48.60241" lon="2.00399">
        <ele>104.1</ele>
        <time>2022-09-29T07:27:45Z</time>
      </trkpt>
      <trkpt lat="48.6024" lon="2.00414">
        <ele>104.5</ele>
        <time>2022-09-29T07:27:54Z</time>
      </trkpt>
      <trkpt lat="48.60246" lon="2.00425">
        <ele>104.9</ele>
        <time>2022-09-29T07:28:00Z</time>
      </trkpt>
      <trkpt lat="48.6025" lon="2.00437">
        <ele>105</ele>
        <time>2022-09-29T07:28:07Z</time>
      </trkpt>
      <trkpt lat="48.60252" lon="2.00451">
        <ele>105.6</ele>
        <time>2022-09-29T07:28:13Z</time>
      </trkpt>
      <trkpt lat="48.60253" lon="2.00465">
        <ele>106.6</ele>
        <time>2022-09-29T07:28:21Z</time>
      </trkpt>
      <trkpt lat="48.60252" lon="2.0048">
        <ele>107.3</ele>
        <time>2022-09-29T07:28:28Z</time>
      </trkpt>
      <trkpt lat="48.60252" lon="2.00495">
        <ele>107.9</ele>
        <time>2022-09-29T07:28:36Z</time>
      </trkpt>
      <trkpt lat="48.60255" lon="2.00509">
        <ele>108.5</ele>
        <time>2022-09-29T07:28:42Z</time>
      </trkpt>
      <trkpt lat="48.60255" lon="2.00524">
        <ele>109</ele>
        <time>2022-09-29T07:28:49Z</time>
      </trkpt>
      <trkpt lat="48.60254" lon="2.0054">
        <ele>109.2</ele>
        <time>2022-09-29T07:28:56Z</time>
      </trkpt>
      <trkpt lat="48.60255" lon="2.00553">
        <ele>109.2</ele>
        <time>2022-09-29T07:29:02Z</time>
      </trkpt>
      <trkpt lat="48.60257" lon="2.00567">
        <ele>109.2</ele>
        <time>2022-09-29T07:29:11Z</time>
      </trkpt>
      <trkpt lat="48.60257" lon="2.00552">
        <ele>109.3</ele>
        <time>2022-09-29T07:29:54Z</time>
      </trkpt>
      <trkpt lat="48.60257" lon="2.00536">
        <ele>109.3</ele>
        <time>2022-09-29T07:30:01Z</time>
      </trkpt>
      <trkpt lat="48.60259" lon="2.00522">
        <ele>109.1</ele>
        <time>2022-09-29T07:30:09Z</time>
      </trkpt>
      <trkpt lat="48.60257" lon="2.00509">
        <ele>108.6</ele>
        <time>2022-09-29T07:30:16Z</time>
      </trkpt>
      <trkpt lat="48.60256" lon="2.00493">
        <ele>108</ele>
        <time>2022-09-29T07:30:22Z</time>
      </trkpt>
      <trkpt lat="48.60255" lon="2.00478">
        <ele>107.4</ele>
        <time>2022-09-29T07:30:28Z</time>
      </trkpt>
      <trkpt lat="48.60254" lon="2.00464">
        <ele>106.6</ele>
        <time>2022-09-29T07:30:34Z</time>
      </trkpt>
      <trkpt lat="48.60253" lon="2.0045">
        <ele>105.6</ele>
        <time>2022-09-29T07:30:40Z</time>
      </trkpt>
      <trkpt lat="48.60251" lon="2.00437">
        <ele>105.1</ele>
        <time>2022-09-29T07:30:46Z</time>
      </trkpt>
      <trkpt lat="48.60251" lon="2.00452">
        <ele>105.6</ele>
        <time>2022-09-29T07:30:59Z</time>
      </trkpt>
      <trkpt lat="48.6025" lon="2.00438">
        <ele>105</ele>
        <time>2022-09-29T07:31:15Z</time>
      </trkpt>
      <trkpt lat="48.60248" lon="2.00423">
        <ele>104.9</ele>
        <time>2022-09-29T07:31:23Z</time>
      </trkpt>
      <trkpt lat="48.60245" lon="2.00408">
        <ele>104.5</ele>
        <time>2022-09-29T07:31:30Z</time>
      </trkpt>
      <trkpt lat="48.60242" lon="2.00393">
        <ele>103.9</ele>
        <time>2022-09-29T07:31:38Z</time>
      </trkpt>
      <trkpt lat="48.60248" lon="2.00383">
        <ele>103.7</ele>
        <time>2022-09-29T07:31:48Z</time>
      </trkpt>
      <trkpt lat="48.60257" lon="2.00379">
        <ele>103.9</ele>
        <time>2022-09-29T07:31:56Z</time>
      </trkpt>
      <trkpt lat="48.60266" lon="2.0038">
        <ele>104.3</ele>
        <time>2022-09-29T07:32:05Z</time>
      </trkpt>
      <trkpt lat="48.60276" lon="2.0038">
        <ele>104.6</ele>
        <time>2022-09-29T07:32:12Z</time>
      </trkpt>
      <trkpt lat="48.60286" lon="2.0038">
        <ele>105</ele>
        <time>2022-09-29T07:32:19Z</time>
      </trkpt>
      <trkpt lat="48.60295" lon="2.00379">
        <ele>105.3</ele>
        <time>2022-09-29T07:32:25Z</time>
      </trkpt>
      <trkpt lat="48.60305" lon="2.00378">
        <ele>105.6</ele>
        <time>2022-09-29T07:32:31Z</time>
      </trkpt>
      <trkpt lat="48.60315" lon="2.00379">
        <ele>105.3</ele>
        <time>2022-09-29T07:32:37Z</time>
      </trkpt>
      <trkpt lat="48.60324" lon="2.00382">
        <ele>105.1</ele>
        <time>2022-09-29T07:32:46Z</time>
      </trkpt>
      <trkpt lat="48.60323" lon="2.00396">
        <ele>105.5</ele>
        <time>2022-09-29T07:32:56Z</time>
      </trkpt>
      <trkpt lat="48.60325" lon="2.0041">
        <ele>105.8</ele>
        <time>2022-09-29T07:33:03Z</time>
      </trkpt>
      <trkpt lat="48.6033" lon="2.00421">
        <ele>106.2</ele>
        <time>2022-09-29T07:33:12Z</time>
      </trkpt>
      <trkpt lat="48.60334" lon="2.00435">
        <ele>106.7</ele>
        <time>2022-09-29T07:33:20Z</time>
      </trkpt>
      <trkpt lat="48.60332" lon="2.0045">
        <ele>107.2</ele>
        <time>2022-09-29T07:33:28Z</time>
      </trkpt>
      <trkpt lat="48.6033" lon="2.00465">
        <ele>107.8</ele>
        <time>2022-09-29T07:33:37Z</time>
      </trkpt>
      <trkpt lat="48.60328" lon="2.00479">
        <ele>108.3</ele>
        <time>2022-09-29T07:33:45Z</time>
      </trkpt>
      <trkpt lat="48.60329" lon="2.00493">
        <ele>108.8</ele>
        <time>2022-09-29T07:33:55Z</time>
      </trkpt>
      <trkpt lat="48.60332" lon="2.00506">
        <ele>109.2</ele>
        <time>2022-09-29T07:34:01Z</time>
      </trkpt>
      <trkpt lat="48.60334" lon="2.00522">
        <ele>109.8</ele>
        <time>2022-09-29T07:34:08Z</time>
      </trkpt>
      <trkpt lat="48.60339" lon="2.00534">
        <ele>110</ele>
        <time>2022-09-29T07:34:14Z</time>
      </trkpt>
      <trkpt lat="48.60339" lon="2.00549">
        <ele>110.5</ele>
        <time>2022-09-29T07:34:20Z</time>
      </trkpt>
      <trkpt lat="48.60339" lon="2.00565">
        <ele>110.9</ele>
        <time>2022-09-29T07:34:27Z</time>
      </trkpt>
      <trkpt lat="48.60338" lon="2.0058">
        <ele>111</ele>
        <time>2022-09-29T07:34:34Z</time>
      </trkpt>
      <trkpt lat="48.60343" lon="2.00593">
        <ele>111</ele>
        <time>2022-09-29T07:34:40Z</time>
      </trkpt>
      <trkpt lat="48.60348" lon="2.00605">
        <ele>111</ele>
        <time>2022-09-29T07:34:46Z</time>
      </trkpt>
      <trkpt lat="48.60352" lon="2.00618">
        <ele>111</ele>
        <time>2022-09-29T07:34:52Z</time>
      </trkpt>
      <trkpt lat="48.60356" lon="2.00632">
        <ele>111</ele>
        <time>2022-09-29T07:34:59Z</time>
      </trkpt>
      <trkpt lat="48.60358" lon="2.00647">
        <ele>111</ele>
        <time>2022-09-29T07:35:07Z</time>
      </trkpt>
      <trkpt lat="48.6036" lon="2.00662">
        <ele>111</ele>
        <time>2022-09-29T07:35:14Z</time>
      </trkpt>
      <trkpt lat="48.60362" lon="2.00676">
        <ele>111</ele>
        <time>2022-09-29T07:35:20Z</time>
      </trkpt>
      <trkpt lat="48.6037" lon="2.00682">
        <ele>111</ele>
        <time>2022-09-29T07:35:49Z</time>
      </trkpt>
      <trkpt lat="48.60374" lon="2.00695">
        <ele>111</ele>
        <time>2022-09-29T07:35:59Z</time>
      </trkpt>
      <trkpt lat="48.60381" lon="2.00687">
        <ele>111</ele>
        <time>2022-09-29T07:38:38Z</time>
      </trkpt>
      <trkpt lat="48.60391" lon="2.00684">
        <ele>111</ele>
        <time>2022-09-29T07:39:07Z</time>
      </trkpt>
      <trkpt lat="48.604" lon="2.00686">
        <ele>111</ele>
        <time>2022-09-29T07:39:15Z</time>
      </trkpt>
      <trkpt lat="48.6041" lon="2.00683">
        <ele>111</ele>
        <time>2022-09-29T07:39:22Z</time>
      </trkpt>
      <trkpt lat="48.6042" lon="2.00679">
        <ele>111.1</ele>
        <time>2022-09-29T07:39:30Z</time>
      </trkpt>
      <trkpt lat="48.6043" lon="2.00677">
        <ele>111.3</ele>
        <time>2022-09-29T07:39:35Z</time>
      </trkpt>
      <trkpt lat="48.60439" lon="2.00673">
        <ele>111.6</ele>
        <time>2022-09-29T07:39:41Z</time>
      </trkpt>
      <trkpt lat="48.60448" lon="2.00668">
        <ele>112.1</ele>
        <time>2022-09-29T07:39:47Z</time>
      </trkpt>
      <trkpt lat="48.60457" lon="2.00666">
        <ele>112.5</ele>
        <time>2022-09-29T07:39:54Z</time>
      </trkpt>
      <trkpt lat="48.60467" lon="2.00663">
        <ele>112.9</ele>
        <time>2022-09-29T07:40:01Z</time>
      </trkpt>
      <trkpt lat="48.60476" lon="2.00659">
        <ele>113.4</ele>
        <time>2022-09-29T07:40:08Z</time>
      </trkpt>
      <trkpt lat="48.60485" lon="2.00659">
        <ele>113.7</ele>
        <time>2022-09-29T07:40:15Z</time>
      </trkpt>
      <trkpt lat="48.60494" lon="2.00659">
        <ele>114.1</ele>
        <time>2022-09-29T07:40:22Z</time>
      </trkpt>
      <trkpt lat="48.60505" lon="2.00656">
        <ele>114.8</ele>
        <time>2022-09-29T07:40:29Z</time>
      </trkpt>
      <trkpt lat="48.60514" lon="2.00656">
        <ele>115.7</ele>
        <time>2022-09-29T07:40:36Z</time>
      </trkpt>
      <trkpt lat="48.60524" lon="2.00655">
        <ele>116.6</ele>
        <time>2022-09-29T07:40:43Z</time>
      </trkpt>
      <trkpt lat="48.60533" lon="2.00661">
        <ele>117.4</ele>
        <time>2022-09-29T07:40:51Z</time>
      </trkpt>
      <trkpt lat="48.60542" lon="2.00664">
        <ele>118.1</ele>
        <time>2022-09-29T07:40:57Z</time>
      </trkpt>
      <trkpt lat="48.60551" lon="2.00667">
        <ele>118.7</ele>
        <time>2022-09-29T07:41:03Z</time>
      </trkpt>
      <trkpt lat="48.6056" lon="2.0067">
        <ele>119.2</ele>
        <time>2022-09-29T07:41:09Z</time>
      </trkpt>
      <trkpt lat="48.6057" lon="2.00672">
        <ele>119.8</ele>
        <time>2022-09-29T07:41:15Z</time>
      </trkpt>
      <trkpt lat="48.6058" lon="2.00672">
        <ele>120.6</ele>
        <time>2022-09-29T07:41:21Z</time>
      </trkpt>
      <trkpt lat="48.6059" lon="2.0067">
        <ele>121.1</ele>
        <time>2022-09-29T07:41:28Z</time>
      </trkpt>
      <trkpt lat="48.606" lon="2.0067">
        <ele>121.5</ele>
        <time>2022-09-29T07:41:35Z</time>
      </trkpt>
      <trkpt lat="48.60609" lon="2.0067">
        <ele>121.8</ele>
        <time>2022-09-29T07:41:41Z</time>
      </trkpt>
      <trkpt lat="48.60619" lon="2.0067">
        <ele>122.2</ele>
        <time>2022-09-29T07:41:50Z</time>
      </trkpt>
      <trkpt lat="48.60628" lon="2.00668">
        <ele>122.6</ele>
        <time>2022-09-29T07:41:57Z</time>
      </trkpt>
      <trkpt lat="48.60638" lon="2.00667">
        <ele>123</ele>
        <time>2022-09-29T07:42:04Z</time>
      </trkpt>
      <trkpt lat="48.60648" lon="2.00665">
        <ele>123.9</ele>
        <time>2022-09-29T07:42:10Z</time>
      </trkpt>
      <trkpt lat="48.60656" lon="2.00662">
        <ele>124.8</ele>
        <time>2022-09-29T07:42:17Z</time>
      </trkpt>
      <trkpt lat="48.60666" lon="2.0066">
        <ele>125.7</ele>
        <time>2022-09-29T07:42:23Z</time>
      </trkpt>
      <trkpt lat="48.60675" lon="2.00659">
        <ele>126.9</ele>
        <time>2022-09-29T07:42:29Z</time>
      </trkpt>
      <trkpt lat="48.60684" lon="2.00659">
        <ele>128.3</ele>
        <time>2022-09-29T07:42:36Z</time>
      </trkpt>
      <trkpt lat="48.60694" lon="2.00659">
        <ele>129.7</ele>
        <time>2022-09-29T07:42:43Z</time>
      </trkpt>
      <trkpt lat="48.60704" lon="2.00657">
        <ele>131.1</ele>
        <time>2022-09-29T07:42:50Z</time>
      </trkpt>
      <trkpt lat="48.60713" lon="2.00658">
        <ele>132.6</ele>
        <time>2022-09-29T07:42:58Z</time>
      </trkpt>
      <trkpt lat="48.60722" lon="2.00653">
        <ele>133.9</ele>
        <time>2022-09-29T07:43:07Z</time>
      </trkpt>
      <trkpt lat="48.60731" lon="2.00652">
        <ele>135.5</ele>
        <time>2022-09-29T07:43:17Z</time>
      </trkpt>
      <trkpt lat="48.60741" lon="2.00649">
        <ele>137.1</ele>
        <time>2022-09-29T07:43:22Z</time>
      </trkpt>
      <trkpt lat="48.60751" lon="2.00651">
        <ele>138.6</ele>
        <time>2022-09-29T07:43:45Z</time>
      </trkpt>
      <trkpt lat="48.60755" lon="2.00663">
        <ele>138.3</ele>
        <time>2022-09-29T07:43:52Z</time>
      </trkpt>
      <trkpt lat="48.60749" lon="2.00675">
        <ele>137.3</ele>
        <time>2022-09-29T07:44:06Z</time>
      </trkpt>
      <trkpt lat="48.60743" lon="2.00687">
        <ele>135.9</ele>
        <time>2022-09-29T07:44:14Z</time>
      </trkpt>
      <trkpt lat="48.60736" lon="2.00697">
        <ele>134.9</ele>
        <time>2022-09-29T07:44:21Z</time>
      </trkpt>
      <trkpt lat="48.60727" lon="2.00704">
        <ele>134</ele>
        <time>2022-09-29T07:44:28Z</time>
      </trkpt>
      <trkpt lat="48.60718" lon="2.00712">
        <ele>133</ele>
        <time>2022-09-29T07:44:35Z</time>
      </trkpt>
      <trkpt lat="48.60711" lon="2.00723">
        <ele>131.7</ele>
        <time>2022-09-29T07:44:42Z</time>
      </trkpt>
      <trkpt lat="48.60706" lon="2.00735">
        <ele>130.8</ele>
        <time>2022-09-29T07:44:48Z</time>
      </trkpt>
      <trkpt lat="48.60698" lon="2.00744">
        <ele>129.6</ele>
        <time>2022-09-29T07:44:57Z</time>
      </trkpt>
      <trkpt lat="48.6069" lon="2.00752">
        <ele>128.3</ele>
        <time>2022-09-29T07:45:06Z</time>
      </trkpt>
      <trkpt lat="48.60684" lon="2.00763">
        <ele>127.2</ele>
        <time>2022-09-29T07:45:14Z</time>
      </trkpt>
      <trkpt lat="48.60677" lon="2.00773">
        <ele>126.2</ele>
        <time>2022-09-29T07:45:22Z</time>
      </trkpt>
      <trkpt lat="48.6067" lon="2.00782">
        <ele>125.2</ele>
        <time>2022-09-29T07:45:30Z</time>
      </trkpt>
      <trkpt lat="48.60662" lon="2.00789">
        <ele>124.1</ele>
        <time>2022-09-29T07:45:35Z</time>
      </trkpt>
      <trkpt lat="48.60653" lon="2.00796">
        <ele>123.2</ele>
        <time>2022-09-29T07:45:42Z</time>
      </trkpt>
      <trkpt lat="48.60647" lon="2.00807">
        <ele>122.5</ele>
        <time>2022-09-29T07:45:48Z</time>
      </trkpt>
      <trkpt lat="48.60642" lon="2.0082">
        <ele>121.8</ele>
        <time>2022-09-29T07:45:57Z</time>
      </trkpt>
      <trkpt lat="48.60634" lon="2.00829">
        <ele>120.8</ele>
        <time>2022-09-29T07:46:05Z</time>
      </trkpt>
      <trkpt lat="48.60628" lon="2.00841">
        <ele>120.4</ele>
        <time>2022-09-29T07:46:13Z</time>
      </trkpt>
      <trkpt lat="48.60621" lon="2.00849">
        <ele>119.9</ele>
        <time>2022-09-29T07:46:19Z</time>
      </trkpt>
      <trkpt lat="48.60614" lon="2.0086">
        <ele>119.3</ele>
        <time>2022-09-29T07:46:25Z</time>
      </trkpt>
      <trkpt lat="48.60607" lon="2.00869">
        <ele>118.9</ele>
        <time>2022-09-29T07:46:33Z</time>
      </trkpt>
      <trkpt lat="48.606" lon="2.0088">
        <ele>118.6</ele>
        <time>2022-09-29T07:46:40Z</time>
      </trkpt>
      <trkpt lat="48.60593" lon="2.00889">
        <ele>118</ele>
        <time>2022-09-29T07:46:48Z</time>
      </trkpt>
      <trkpt lat="48.60586" lon="2.00901">
        <ele>117.3</ele>
        <time>2022-09-29T07:46:55Z</time>
      </trkpt>
      <trkpt lat="48.60578" lon="2.00909">
        <ele>116.6</ele>
        <time>2022-09-29T07:47:01Z</time>
      </trkpt>
      <trkpt lat="48.6057" lon="2.00918">
        <ele>116</ele>
        <time>2022-09-29T07:47:09Z</time>
      </trkpt>
      <trkpt lat="48.60563" lon="2.00929">
        <ele>115.5</ele>
        <time>2022-09-29T07:47:16Z</time>
      </trkpt>
      <trkpt lat="48.60556" lon="2.00939">
        <ele>115</ele>
        <time>2022-09-29T07:47:24Z</time>
      </trkpt>
      <trkpt lat="48.6055" lon="2.00951">
        <ele>114.6</ele>
        <time>2022-09-29T07:47:33Z</time>
      </trkpt>
      <trkpt lat="48.60542" lon="2.00961">
        <ele>114</ele>
        <time>2022-09-29T07:47:40Z</time>
      </trkpt>
      <trkpt lat="48.60535" lon="2.00971">
        <ele>113.5</ele>
        <time>2022-09-29T07:47:47Z</time>
      </trkpt>
      <trkpt lat="48.60531" lon="2.00985">
        <ele>112.8</ele>
        <time>2022-09-29T07:47:53Z</time>
      </trkpt>
      <trkpt lat="48.60526" lon="2.00998">
        <ele>112</ele>
        <time>2022-09-29T07:48:00Z</time>
      </trkpt>
      <trkpt lat="48.60522" lon="2.01011">
        <ele>111.2</ele>
        <time>2022-09-29T07:48:08Z</time>
      </trkpt>
      <trkpt lat="48.60524" lon="2.01025">
        <ele>110.8</ele>
        <time>2022-09-29T07:48:15Z</time>
      </trkpt>
      <trkpt lat="48.60533" lon="2.01032">
        <ele>111</ele>
        <time>2022-09-29T07:48:22Z</time>
      </trkpt>
      <trkpt lat="48.60542" lon="2.01039">
        <ele>111.2</ele>
        <time>2022-09-29T07:48:29Z</time>
      </trkpt>
      <trkpt lat="48.60551" lon="2.01045">
        <ele>111.4</ele>
        <time>2022-09-29T07:48:35Z</time>
      </trkpt>
      <trkpt lat="48.60559" lon="2.01052">
        <ele>111.4</ele>
        <time>2022-09-29T07:48:42Z</time>
      </trkpt>
      <trkpt lat="48.60569" lon="2.01059">
        <ele>111.2</ele>
        <time>2022-09-29T07:48:49Z</time>
      </trkpt>
      <trkpt lat="48.60578" lon="2.01062">
        <ele>111.3</ele>
        <time>2022-09-29T07:48:55Z</time>
      </trkpt>
      <trkpt lat="48.60588" lon="2.01066">
        <ele>111.4</ele>
        <time>2022-09-29T07:49:02Z</time>
      </trkpt>
      <trkpt lat="48.60596" lon="2.01072">
        <ele>111.3</ele>
        <time>2022-09-29T07:49:10Z</time>
      </trkpt>
      <trkpt lat="48.60605" lon="2.01079">
        <ele>111.1</ele>
        <time>2022-09-29T07:49:17Z</time>
      </trkpt>
      <trkpt lat="48.60613" lon="2.01085">
        <ele>111</ele>
        <time>2022-09-29T07:49:24Z</time>
      </trkpt>
      <trkpt lat="48.60622" lon="2.0109">
        <ele>111.4</ele>
        <time>2022-09-29T07:49:31Z</time>
      </trkpt>
      <trkpt lat="48.6063" lon="2.01095">
        <ele>111.7</ele>
        <time>2022-09-29T07:49:38Z</time>
      </trkpt>
      <trkpt lat="48.6064" lon="2.011">
        <ele>111.8</ele>
        <time>2022-09-29T07:49:45Z</time>
      </trkpt>
      <trkpt lat="48.60649" lon="2.01106">
        <ele>112</ele>
        <time>2022-09-29T07:49:52Z</time>
      </trkpt>
      <trkpt lat="48.60659" lon="2.0111">
        <ele>112.5</ele>
        <time>2022-09-29T07:49:59Z</time>
      </trkpt>
      <trkpt lat="48.60669" lon="2.01114">
        <ele>112.8</ele>
        <time>2022-09-29T07:50:06Z</time>
      </trkpt>
      <trkpt lat="48.60678" lon="2.01117">
        <ele>112.7</ele>
        <time>2022-09-29T07:50:12Z</time>
      </trkpt>
      <trkpt lat="48.60688" lon="2.01122">
        <ele>112.8</ele>
        <time>2022-09-29T07:50:19Z</time>
      </trkpt>
      <trkpt lat="48.60697" lon="2.01127">
        <ele>113.1</ele>
        <time>2022-09-29T07:50:26Z</time>
      </trkpt>
      <trkpt lat="48.60707" lon="2.01128">
        <ele>113.5</ele>
        <time>2022-09-29T07:50:33Z</time>
      </trkpt>
      <trkpt lat="48.60717" lon="2.0113">
        <ele>113.8</ele>
        <time>2022-09-29T07:50:40Z</time>
      </trkpt>
      <trkpt lat="48.60727" lon="2.01133">
        <ele>114</ele>
        <time>2022-09-29T07:50:47Z</time>
      </trkpt>
      <trkpt lat="48.60736" lon="2.01135">
        <ele>114</ele>
        <time>2022-09-29T07:50:53Z</time>
      </trkpt>
      <trkpt lat="48.60745" lon="2.01135">
        <ele>114</ele>
        <time>2022-09-29T07:50:59Z</time>
      </trkpt>
      <trkpt lat="48.60754" lon="2.01138">
        <ele>114.2</ele>
        <time>2022-09-29T07:51:05Z</time>
      </trkpt>
      <trkpt lat="48.60764" lon="2.0114">
        <ele>114.5</ele>
        <time>2022-09-29T07:51:12Z</time>
      </trkpt>
      <trkpt lat="48.60773" lon="2.01141">
        <ele>114.9</ele>
        <time>2022-09-29T07:51:19Z</time>
      </trkpt>
      <trkpt lat="48.60782" lon="2.01147">
        <ele>115.7</ele>
        <time>2022-09-29T07:51:26Z</time>
      </trkpt>
      <trkpt lat="48.6079" lon="2.01154">
        <ele>116.6</ele>
        <time>2022-09-29T07:51:33Z</time>
      </trkpt>
      <trkpt lat="48.60799" lon="2.0116">
        <ele>117.5</ele>
        <time>2022-09-29T07:51:40Z</time>
      </trkpt>
      <trkpt lat="48.60809" lon="2.01164">
        <ele>118.2</ele>
        <time>2022-09-29T07:51:47Z</time>
      </trkpt>
      <trkpt lat="48.60818" lon="2.0117">
        <ele>118.9</ele>
        <time>2022-09-29T07:51:55Z</time>
      </trkpt>
      <trkpt lat="48.60827" lon="2.01177">
        <ele>119.6</ele>
        <time>2022-09-29T07:52:02Z</time>
      </trkpt>
      <trkpt lat="48.60835" lon="2.01184">
        <ele>120</ele>
        <time>2022-09-29T07:52:09Z</time>
      </trkpt>
      <trkpt lat="48.60843" lon="2.01193">
        <ele>120.3</ele>
        <time>2022-09-29T07:52:17Z</time>
      </trkpt>
      <trkpt lat="48.60851" lon="2.012">
        <ele>120.6</ele>
        <time>2022-09-29T07:52:24Z</time>
      </trkpt>
      <trkpt lat="48.6086" lon="2.01204">
        <ele>121</ele>
        <time>2022-09-29T07:52:32Z</time>
      </trkpt>
      <trkpt lat="48.60869" lon="2.01207">
        <ele>121.3</ele>
        <time>2022-09-29T07:52:39Z</time>
      </trkpt>
      <trkpt lat="48.60878" lon="2.01212">
        <ele>121.6</ele>
        <time>2022-09-29T07:52:46Z</time>
      </trkpt>
      <trkpt lat="48.60887" lon="2.01216">
        <ele>121.9</ele>
        <time>2022-09-29T07:52:55Z</time>
      </trkpt>
      <trkpt lat="48.60897" lon="2.01221">
        <ele>122</ele>
        <time>2022-09-29T07:53:05Z</time>
      </trkpt>
      <trkpt lat="48.60906" lon="2.01227">
        <ele>122</ele>
        <time>2022-09-29T07:53:13Z</time>
      </trkpt>
      <trkpt lat="48.60913" lon="2.01236">
        <ele>122</ele>
        <time>2022-09-29T07:53:19Z</time>
      </trkpt>
      <trkpt lat="48.60921" lon="2.01244">
        <ele>122.1</ele>
        <time>2022-09-29T07:53:26Z</time>
      </trkpt>
      <trkpt lat="48.60929" lon="2.01252">
        <ele>122.4</ele>
        <time>2022-09-29T07:53:32Z</time>
      </trkpt>
      <trkpt lat="48.60938" lon="2.01257">
        <ele>122.6</ele>
        <time>2022-09-29T07:53:38Z</time>
      </trkpt>
      <trkpt lat="48.60947" lon="2.01263">
        <ele>122.5</ele>
        <time>2022-09-29T07:53:46Z</time>
      </trkpt>
      <trkpt lat="48.60956" lon="2.01269">
        <ele>122.2</ele>
        <time>2022-09-29T07:53:53Z</time>
      </trkpt>
      <trkpt lat="48.60965" lon="2.01275">
        <ele>122</ele>
        <time>2022-09-29T07:54:00Z</time>
      </trkpt>
      <trkpt lat="48.60974" lon="2.01283">
        <ele>121.7</ele>
        <time>2022-09-29T07:54:06Z</time>
      </trkpt>
      <trkpt lat="48.60982" lon="2.01289">
        <ele>121</ele>
        <time>2022-09-29T07:54:12Z</time>
      </trkpt>
      <trkpt lat="48.60991" lon="2.01296">
        <ele>120.5</ele>
        <time>2022-09-29T07:54:18Z</time>
      </trkpt>
      <trkpt lat="48.60998" lon="2.01306">
        <ele>120.1</ele>
        <time>2022-09-29T07:55:20Z</time>
      </trkpt>
      <trkpt lat="48.61005" lon="2.01316">
        <ele>119.5</ele>
        <time>2022-09-29T07:55:28Z</time>
      </trkpt>
      <trkpt lat="48.61011" lon="2.01326">
        <ele>118.9</ele>
        <time>2022-09-29T07:55:36Z</time>
      </trkpt>
      <trkpt lat="48.61018" lon="2.01334">
        <ele>118.3</ele>
        <time>2022-09-29T07:55:44Z</time>
      </trkpt>
      <trkpt lat="48.61027" lon="2.01343">
        <ele>118</ele>
        <time>2022-09-29T07:55:52Z</time>
      </trkpt>
      <trkpt lat="48.61035" lon="2.01352">
        <ele>118</ele>
        <time>2022-09-29T07:55:59Z</time>
      </trkpt>
      <trkpt lat="48.61044" lon="2.01361">
        <ele>118</ele>
        <time>2022-09-29T07:56:05Z</time>
      </trkpt>
      <trkpt lat="48.61052" lon="2.01369">
        <ele>117.7</ele>
        <time>2022-09-29T07:56:12Z</time>
      </trkpt>
      <trkpt lat="48.61061" lon="2.01378">
        <ele>117.4</ele>
        <time>2022-09-29T07:56:19Z</time>
      </trkpt>
      <trkpt lat="48.61069" lon="2.01387">
        <ele>117.1</ele>
        <time>2022-09-29T07:56:27Z</time>
      </trkpt>
      <trkpt lat="48.61079" lon="2.01394">
        <ele>117</ele>
        <time>2022-09-29T07:56:34Z</time>
      </trkpt>
      <trkpt lat="48.61089" lon="2.014">
        <ele>117</ele>
        <time>2022-09-29T07:56:40Z</time>
      </trkpt>
      <trkpt lat="48.61097" lon="2.01408">
        <ele>117</ele>
        <time>2022-09-29T07:56:47Z</time>
      </trkpt>
      <trkpt lat="48.61106" lon="2.01414">
        <ele>117</ele>
        <time>2022-09-29T07:56:54Z</time>
      </trkpt>
      <trkpt lat="48.61114" lon="2.01422">
        <ele>117.1</ele>
        <time>2022-09-29T07:57:02Z</time>
      </trkpt>
      <trkpt lat="48.61122" lon="2.01428">
        <ele>117.4</ele>
        <time>2022-09-29T07:57:10Z</time>
      </trkpt>
      <trkpt lat="48.61132" lon="2.01434">
        <ele>117.7</ele>
        <time>2022-09-29T07:57:17Z</time>
      </trkpt>
      <trkpt lat="48.61141" lon="2.01439">
        <ele>118</ele>
        <time>2022-09-29T07:57:23Z</time>
      </trkpt>
      <trkpt lat="48.6115" lon="2.01444">
        <ele>118</ele>
        <time>2022-09-29T07:57:29Z</time>
      </trkpt>
      <trkpt lat="48.61159" lon="2.01451">
        <ele>118</ele>
        <time>2022-09-29T07:57:36Z</time>
      </trkpt>
      <trkpt lat="48.61169" lon="2.01454">
        <ele>118.1</ele>
        <time>2022-09-29T07:57:43Z</time>
      </trkpt>
      <trkpt lat="48.61177" lon="2.0146">
        <ele>118.4</ele>
        <time>2022-09-29T07:57:50Z</time>
      </trkpt>
      <trkpt lat="48.61187" lon="2.01467">
        <ele>118.7</ele>
        <time>2022-09-29T07:57:57Z</time>
      </trkpt>
      <trkpt lat="48.61196" lon="2.0147">
        <ele>119</ele>
        <time>2022-09-29T07:58:03Z</time>
      </trkpt>
      <trkpt lat="48.61204" lon="2.01475">
        <ele>119.3</ele>
        <time>2022-09-29T07:58:09Z</time>
      </trkpt>
      <trkpt lat="48.61212" lon="2.01483">
        <ele>119.4</ele>
        <time>2022-09-29T07:58:16Z</time>
      </trkpt>
      <trkpt lat="48.61221" lon="2.01489">
        <ele>119.4</ele>
        <time>2022-09-29T07:58:23Z</time>
      </trkpt>
      <trkpt lat="48.6123" lon="2.01495">
        <ele>119.5</ele>
        <time>2022-09-29T07:58:29Z</time>
      </trkpt>
      <trkpt lat="48.61239" lon="2.01501">
        <ele>119.6</ele>
        <time>2022-09-29T07:58:35Z</time>
      </trkpt>
      <trkpt lat="48.61248" lon="2.01507">
        <ele>119.9</ele>
        <time>2022-09-29T07:58:42Z</time>
      </trkpt>
      <trkpt lat="48.61258" lon="2.01511">
        <ele>120.2</ele>
        <time>2022-09-29T07:58:48Z</time>
      </trkpt>
      <trkpt lat="48.61268" lon="2.01514">
        <ele>120.3</ele>
        <time>2022-09-29T07:58:54Z</time>
      </trkpt>
      <trkpt lat="48.61277" lon="2.01516">
        <ele>120.4</ele>
        <time>2022-09-29T07:59:01Z</time>
      </trkpt>
      <trkpt lat="48.61286" lon="2.0152">
        <ele>120.3</ele>
        <time>2022-09-29T07:59:08Z</time>
      </trkpt>
      <trkpt lat="48.61295" lon="2.01524">
        <ele>120.1</ele>
        <time>2022-09-29T07:59:14Z</time>
      </trkpt>
      <trkpt lat="48.61305" lon="2.01528">
        <ele>120</ele>
        <time>2022-09-29T07:59:21Z</time>
      </trkpt>
      <trkpt lat="48.61314" lon="2.01532">
        <ele>119.9</ele>
        <time>2022-09-29T07:59:27Z</time>
      </trkpt>
      <trkpt lat="48.61324" lon="2.01536">
        <ele>119.7</ele>
        <time>2022-09-29T07:59:34Z</time>
      </trkpt>
      <trkpt lat="48.61333" lon="2.01537">
        <ele>119.7</ele>
        <time>2022-09-29T07:59:40Z</time>
      </trkpt>
      <trkpt lat="48.61343" lon="2.01536">
        <ele>120</ele>
        <time>2022-09-29T07:59:47Z</time>
      </trkpt>
      <trkpt lat="48.61353" lon="2.0154">
        <ele>120.3</ele>
        <time>2022-09-29T07:59:54Z</time>
      </trkpt>
      <trkpt lat="48.61362" lon="2.01538">
        <ele>120.7</ele>
        <time>2022-09-29T08:00:01Z</time>
      </trkpt>
      <trkpt lat="48.61372" lon="2.01537">
        <ele>121.1</ele>
        <time>2022-09-29T08:00:08Z</time>
      </trkpt>
      <trkpt lat="48.61382" lon="2.01537">
        <ele>121.4</ele>
        <time>2022-09-29T08:00:14Z</time>
      </trkpt>
      <trkpt lat="48.61391" lon="2.01537">
        <ele>121.6</ele>
        <time>2022-09-29T08:00:20Z</time>
      </trkpt>
      <trkpt lat="48.614" lon="2.0154">
        <ele>121.2</ele>
        <time>2022-09-29T08:00:26Z</time>
      </trkpt>
      <trkpt lat="48.61409" lon="2.01544">
        <ele>120.7</ele>
        <time>2022-09-29T08:00:33Z</time>
      </trkpt>
      <trkpt lat="48.61418" lon="2.01542">
        <ele>120.5</ele>
        <time>2022-09-29T08:00:40Z</time>
      </trkpt>
      <trkpt lat="48.61427" lon="2.01535">
        <ele>120.7</ele>
        <time>2022-09-29T08:00:47Z</time>
      </trkpt>
      <trkpt lat="48.61435" lon="2.01527">
        <ele>121</ele>
        <time>2022-09-29T08:00:55Z</time>
      </trkpt>
      <trkpt lat="48.61446" lon="2.01528">
        <ele>121</ele>
        <time>2022-09-29T08:01:05Z</time>
      </trkpt>
      <trkpt lat="48.61455" lon="2.0153">
        <ele>120.9</ele>
        <time>2022-09-29T08:01:11Z</time>
      </trkpt>
      <trkpt lat="48.61464" lon="2.01527">
        <ele>121</ele>
        <time>2022-09-29T08:01:18Z</time>
      </trkpt>
      <trkpt lat="48.61474" lon="2.01524">
        <ele>121.1</ele>
        <time>2022-09-29T08:01:26Z</time>
      </trkpt>
      <trkpt lat="48.61484" lon="2.01526">
        <ele>121.1</ele>
        <time>2022-09-29T08:01:35Z</time>
      </trkpt>
      <trkpt lat="48.61493" lon="2.01525">
        <ele>121.1</ele>
        <time>2022-09-29T08:01:41Z</time>
      </trkpt>
      <trkpt lat="48.61502" lon="2.01522">
        <ele>121.2</ele>
        <time>2022-09-29T08:01:47Z</time>
      </trkpt>
      <trkpt lat="48.61512" lon="2.01518">
        <ele>121.3</ele>
        <time>2022-09-29T08:01:54Z</time>
      </trkpt>
      <trkpt lat="48.61522" lon="2.01516">
        <ele>121.4</ele>
        <time>2022-09-29T08:02:01Z</time>
      </trkpt>
      <trkpt lat="48.61531" lon="2.01512">
        <ele>121.5</ele>
        <time>2022-09-29T08:02:07Z</time>
      </trkpt>
      <trkpt lat="48.6154" lon="2.0151">
        <ele>121.4</ele>
        <time>2022-09-29T08:02:18Z</time>
      </trkpt>
      <trkpt lat="48.6155" lon="2.01509">
        <ele>121.1</ele>
        <time>2022-09-29T08:02:24Z</time>
      </trkpt>
      <trkpt lat="48.61559" lon="2.01506">
        <ele>121</ele>
        <time>2022-09-29T08:02:36Z</time>
      </trkpt>
      <trkpt lat="48.61568" lon="2.01504">
        <ele>120.9</ele>
        <time>2022-09-29T08:03:05Z</time>
      </trkpt>
      <trkpt lat="48.61574" lon="2.01494">
        <ele>121.1</ele>
        <time>2022-09-29T08:03:13Z</time>
      </trkpt>
      <trkpt lat="48.61581" lon="2.01482">
        <ele>121.1</ele>
        <time>2022-09-29T08:03:22Z</time>
      </trkpt>
      <trkpt lat="48.61588" lon="2.01473">
        <ele>120.8</ele>
        <time>2022-09-29T08:03:29Z</time>
      </trkpt>
      <trkpt lat="48.61595" lon="2.01464">
        <ele>120.7</ele>
        <time>2022-09-29T08:03:35Z</time>
      </trkpt>
      <trkpt lat="48.61603" lon="2.01458">
        <ele>120.4</ele>
        <time>2022-09-29T08:03:42Z</time>
      </trkpt>
      <trkpt lat="48.61611" lon="2.0145">
        <ele>120</ele>
        <time>2022-09-29T08:03:50Z</time>
      </trkpt>
      <trkpt lat="48.61617" lon="2.0144">
        <ele>120.2</ele>
        <time>2022-09-29T08:03:57Z</time>
      </trkpt>
      <trkpt lat="48.61623" lon="2.01429">
        <ele>120.6</ele>
        <time>2022-09-29T08:04:03Z</time>
      </trkpt>
      <trkpt lat="48.61631" lon="2.01419">
        <ele>120.9</ele>
        <time>2022-09-29T08:04:10Z</time>
      </trkpt>
      <trkpt lat="48.61639" lon="2.01412">
        <ele>121</ele>
        <time>2022-09-29T08:04:17Z</time>
      </trkpt>
      <trkpt lat="48.61647" lon="2.01405">
        <ele>121</ele>
        <time>2022-09-29T08:04:23Z</time>
      </trkpt>
      <trkpt lat="48.61654" lon="2.01397">
        <ele>121</ele>
        <time>2022-09-29T08:04:30Z</time>
      </trkpt>
      <trkpt lat="48.61663" lon="2.01389">
        <ele>121</ele>
        <time>2022-09-29T08:04:37Z</time>
      </trkpt>
      <trkpt lat="48.61669" lon="2.01378">
        <ele>121.4</ele>
        <time>2022-09-29T08:04:43Z</time>
      </trkpt>
      <trkpt lat="48.61676" lon="2.01367">
        <ele>121.9</ele>
        <time>2022-09-29T08:04:51Z</time>
      </trkpt>
      <trkpt lat="48.61684" lon="2.01358">
        <ele>122</ele>
        <time>2022-09-29T08:04:59Z</time>
      </trkpt>
      <trkpt lat="48.61691" lon="2.01347">
        <ele>122</ele>
        <time>2022-09-29T08:05:06Z</time>
      </trkpt>
      <trkpt lat="48.61698" lon="2.01336">
        <ele>122.1</ele>
        <time>2022-09-29T08:05:15Z</time>
      </trkpt>
      <trkpt lat="48.61704" lon="2.01326">
        <ele>122.4</ele>
        <time>2022-09-29T08:05:20Z</time>
      </trkpt>
      <trkpt lat="48.61712" lon="2.01316">
        <ele>122.6</ele>
        <time>2022-09-29T08:05:26Z</time>
      </trkpt>
      <trkpt lat="48.61718" lon="2.01304">
        <ele>122.9</ele>
        <time>2022-09-29T08:05:32Z</time>
      </trkpt>
      <trkpt lat="48.61725" lon="2.01296">
        <ele>123.1</ele>
        <time>2022-09-29T08:05:38Z</time>
      </trkpt>
      <trkpt lat="48.61733" lon="2.01288">
        <ele>123.4</ele>
        <time>2022-09-29T08:05:44Z</time>
      </trkpt>
      <trkpt lat="48.61742" lon="2.0128">
        <ele>123.7</ele>
        <time>2022-09-29T08:05:49Z</time>
      </trkpt>
      <trkpt lat="48.6175" lon="2.01272">
        <ele>124</ele>
        <time>2022-09-29T08:05:55Z</time>
      </trkpt>
      <trkpt lat="48.61758" lon="2.01263">
        <ele>124</ele>
        <time>2022-09-29T08:06:03Z</time>
      </trkpt>
      <trkpt lat="48.61766" lon="2.01255">
        <ele>124</ele>
        <time>2022-09-29T08:06:11Z</time>
      </trkpt>
      <trkpt lat="48.61774" lon="2.01247">
        <ele>124</ele>
        <time>2022-09-29T08:06:18Z</time>
      </trkpt>
      <trkpt lat="48.61781" lon="2.0124">
        <ele>124</ele>
        <time>2022-09-29T08:06:24Z</time>
      </trkpt>
      <trkpt lat="48.61789" lon="2.01232">
        <ele>124</ele>
        <time>2022-09-29T08:06:32Z</time>
      </trkpt>
      <trkpt lat="48.61797" lon="2.01225">
        <ele>124</ele>
        <time>2022-09-29T08:06:40Z</time>
      </trkpt>
      <trkpt lat="48.61805" lon="2.01218">
        <ele>124</ele>
        <time>2022-09-29T08:06:47Z</time>
      </trkpt>
      <trkpt lat="48.61814" lon="2.0121">
        <ele>123.9</ele>
        <time>2022-09-29T08:06:55Z</time>
      </trkpt>
      <trkpt lat="48.61824" lon="2.01208">
        <ele>123.7</ele>
        <time>2022-09-29T08:07:01Z</time>
      </trkpt>
      <trkpt lat="48.61833" lon="2.01209">
        <ele>123.5</ele>
        <time>2022-09-29T08:07:07Z</time>
      </trkpt>
      <trkpt lat="48.61844" lon="2.01209">
        <ele>123.5</ele>
        <time>2022-09-29T08:07:13Z</time>
      </trkpt>
      <trkpt lat="48.61853" lon="2.01212">
        <ele>123.6</ele>
        <time>2022-09-29T08:07:19Z</time>
      </trkpt>
      <trkpt lat="48.61862" lon="2.01213">
        <ele>123.7</ele>
        <time>2022-09-29T08:07:25Z</time>
      </trkpt>
      <trkpt lat="48.61873" lon="2.01215">
        <ele>124.1</ele>
        <time>2022-09-29T08:07:31Z</time>
      </trkpt>
      <trkpt lat="48.61883" lon="2.01217">
        <ele>124.6</ele>
        <time>2022-09-29T08:07:37Z</time>
      </trkpt>
      <trkpt lat="48.61892" lon="2.01219">
        <ele>124.9</ele>
        <time>2022-09-29T08:07:43Z</time>
      </trkpt>
      <trkpt lat="48.61902" lon="2.0122">
        <ele>124.9</ele>
        <time>2022-09-29T08:07:49Z</time>
      </trkpt>
      <trkpt lat="48.61912" lon="2.01218">
        <ele>124.9</ele>
        <time>2022-09-29T08:07:56Z</time>
      </trkpt>
      <trkpt lat="48.61922" lon="2.0122">
        <ele>124.9</ele>
        <time>2022-09-29T08:08:03Z</time>
      </trkpt>
      <trkpt lat="48.61932" lon="2.01216">
        <ele>124.8</ele>
        <time>2022-09-29T08:08:11Z</time>
      </trkpt>
      <trkpt lat="48.61941" lon="2.01207">
        <ele>124.5</ele>
        <time>2022-09-29T08:08:18Z</time>
      </trkpt>
      <trkpt lat="48.61949" lon="2.012">
        <ele>124.5</ele>
        <time>2022-09-29T08:08:24Z</time>
      </trkpt>
      <trkpt lat="48.61955" lon="2.01188">
        <ele>124.5</ele>
        <time>2022-09-29T08:08:31Z</time>
      </trkpt>
      <trkpt lat="48.61962" lon="2.01179">
        <ele>124.7</ele>
        <time>2022-09-29T08:08:38Z</time>
      </trkpt>
      <trkpt lat="48.61971" lon="2.01173">
        <ele>125.1</ele>
        <time>2022-09-29T08:08:44Z</time>
      </trkpt>
      <trkpt lat="48.6198" lon="2.01167">
        <ele>125.6</ele>
        <time>2022-09-29T08:08:52Z</time>
      </trkpt>
      <trkpt lat="48.61987" lon="2.01156">
        <ele>125.4</ele>
        <time>2022-09-29T08:09:02Z</time>
      </trkpt>
      <trkpt lat="48.61996" lon="2.01151">
        <ele>125.3</ele>
        <time>2022-09-29T08:09:09Z</time>
      </trkpt>
      <trkpt lat="48.62003" lon="2.01162">
        <ele>126.6</ele>
        <time>2022-09-29T08:09:19Z</time>
      </trkpt>
      <trkpt lat="48.62007" lon="2.01176">
        <ele>127.3</ele>
        <time>2022-09-29T08:09:26Z</time>
      </trkpt>
      <trkpt lat="48.62014" lon="2.01185">
        <ele>127.6</ele>
        <time>2022-09-29T08:09:32Z</time>
      </trkpt>
      <trkpt lat="48.62021" lon="2.01195">
        <ele>128</ele>
        <time>2022-09-29T08:09:39Z</time>
      </trkpt>
      <trkpt lat="48.62014" lon="2.01205">
        <ele>128</ele>
        <time>2022-09-29T08:09:47Z</time>
      </trkpt>
      <trkpt lat="48.62019" lon="2.01217">
        <ele>128</ele>
        <time>2022-09-29T08:09:57Z</time>
      </trkpt>
      <trkpt lat="48.62024" lon="2.0123">
        <ele>128</ele>
        <time>2022-09-29T08:10:03Z</time>
      </trkpt>
      <trkpt lat="48.62028" lon="2.01243">
        <ele>128</ele>
        <time>2022-09-29T08:10:11Z</time>
      </trkpt>
      <trkpt lat="48.62034" lon="2.01254">
        <ele>127.6</ele>
        <time>2022-09-29T08:10:19Z</time>
      </trkpt>
      <trkpt lat="48.6204" lon="2.01265">
        <ele>127</ele>
        <time>2022-09-29T08:10:28Z</time>
      </trkpt>
      <trkpt lat="48.62044" lon="2.01278">
        <ele>126.4</ele>
        <time>2022-09-29T08:10:35Z</time>
      </trkpt>
      <trkpt lat="48.62051" lon="2.01289">
        <ele>125.7</ele>
        <time>2022-09-29T08:10:42Z</time>
      </trkpt>
      <trkpt lat="48.62056" lon="2.01301">
        <ele>125.2</ele>
        <time>2022-09-29T08:10:48Z</time>
      </trkpt>
      <trkpt lat="48.62062" lon="2.01313">
        <ele>124.7</ele>
        <time>2022-09-29T08:10:55Z</time>
      </trkpt>
      <trkpt lat="48.62066" lon="2.01327">
        <ele>124.2</ele>
        <time>2022-09-29T08:11:02Z</time>
      </trkpt>
      <trkpt lat="48.62071" lon="2.01338">
        <ele>123.9</ele>
        <time>2022-09-29T08:11:08Z</time>
      </trkpt>
      <trkpt lat="48.62077" lon="2.0135">
        <ele>123.5</ele>
        <time>2022-09-29T08:11:14Z</time>
      </trkpt>
      <trkpt lat="48.62082" lon="2.01364">
        <ele>123</ele>
        <time>2022-09-29T08:11:21Z</time>
      </trkpt>
      <trkpt lat="48.62088" lon="2.01375">
        <ele>123</ele>
        <time>2022-09-29T08:11:27Z</time>
      </trkpt>
      <trkpt lat="48.62092" lon="2.01388">
        <ele>123</ele>
        <time>2022-09-29T08:11:34Z</time>
      </trkpt>
      <trkpt lat="48.62098" lon="2.01398">
        <ele>123</ele>
        <time>2022-09-29T08:11:40Z</time>
      </trkpt>
      <trkpt lat="48.62105" lon="2.01409">
        <ele>123</ele>
        <time>2022-09-29T08:11:47Z</time>
      </trkpt>
      <trkpt lat="48.6211" lon="2.01421">
        <ele>123</ele>
        <time>2022-09-29T08:11:54Z</time>
      </trkpt>
      <trkpt lat="48.62118" lon="2.01431">
        <ele>123</ele>
        <time>2022-09-29T08:12:00Z</time>
      </trkpt>
      <trkpt lat="48.62124" lon="2.0144">
        <ele>123</ele>
        <time>2022-09-29T08:12:06Z</time>
      </trkpt>
      <trkpt lat="48.62129" lon="2.01452">
        <ele>122.7</ele>
        <time>2022-09-29T08:12:14Z</time>
      </trkpt>
      <trkpt lat="48.62134" lon="2.01465">
        <ele>122.3</ele>
        <time>2022-09-29T08:12:21Z</time>
      </trkpt>
      <trkpt lat="48.62137" lon="2.01477">
        <ele>122</ele>
        <time>2022-09-29T08:12:28Z</time>
      </trkpt>
      <trkpt lat="48.62143" lon="2.01488">
        <ele>122.1</ele>
        <time>2022-09-29T08:12:34Z</time>
      </trkpt>
      <trkpt lat="48.62147" lon="2.015">
        <ele>122</ele>
        <time>2022-09-29T08:12:41Z</time>
      </trkpt>
      <trkpt lat="48.62154" lon="2.0151">
        <ele>122</ele>
        <time>2022-09-29T08:12:46Z</time>
      </trkpt>
      <trkpt lat="48.62159" lon="2.01523">
        <ele>122</ele>
        <time>2022-09-29T08:12:53Z</time>
      </trkpt>
      <trkpt lat="48.62167" lon="2.01533">
        <ele>122</ele>
        <time>2022-09-29T08:13:00Z</time>
      </trkpt>
      <trkpt lat="48.62171" lon="2.01545">
        <ele>122.2</ele>
        <time>2022-09-29T08:13:08Z</time>
      </trkpt>
      <trkpt lat="48.62176" lon="2.01559">
        <ele>122.4</ele>
        <time>2022-09-29T08:13:15Z</time>
      </trkpt>
      <trkpt lat="48.62181" lon="2.01572">
        <ele>122.5</ele>
        <time>2022-09-29T08:13:21Z</time>
      </trkpt>
      <trkpt lat="48.62188" lon="2.01583">
        <ele>122.8</ele>
        <time>2022-09-29T08:13:28Z</time>
      </trkpt>
      <trkpt lat="48.62194" lon="2.01594">
        <ele>122.6</ele>
        <time>2022-09-29T08:13:34Z</time>
      </trkpt>
      <trkpt lat="48.62199" lon="2.01606">
        <ele>122.3</ele>
        <time>2022-09-29T08:13:41Z</time>
      </trkpt>
      <trkpt lat="48.62207" lon="2.01614">
        <ele>122.4</ele>
        <time>2022-09-29T08:14:04Z</time>
      </trkpt>
      <trkpt lat="48.62214" lon="2.01621">
        <ele>122.7</ele>
        <time>2022-09-29T08:14:40Z</time>
      </trkpt>
      <trkpt lat="48.62224" lon="2.01626">
        <ele>123</ele>
        <time>2022-09-29T08:14:50Z</time>
      </trkpt>
      <trkpt lat="48.62232" lon="2.01634">
        <ele>123</ele>
        <time>2022-09-29T08:15:00Z</time>
      </trkpt>
      <trkpt lat="48.62242" lon="2.01637">
        <ele>123</ele>
        <time>2022-09-29T08:15:08Z</time>
      </trkpt>
      <trkpt lat="48.6225" lon="2.01642">
        <ele>123</ele>
        <time>2022-09-29T08:15:19Z</time>
      </trkpt>
      <trkpt lat="48.62259" lon="2.01646">
        <ele>123</ele>
        <time>2022-09-29T08:15:41Z</time>
      </trkpt>
      <trkpt lat="48.62267" lon="2.01652">
        <ele>123</ele>
        <time>2022-09-29T08:15:49Z</time>
      </trkpt>
      <trkpt lat="48.62274" lon="2.01662">
        <ele>123</ele>
        <time>2022-09-29T08:15:56Z</time>
      </trkpt>
      <trkpt lat="48.6228" lon="2.01672">
        <ele>123.1</ele>
        <time>2022-09-29T08:16:02Z</time>
      </trkpt>
      <trkpt lat="48.62287" lon="2.01684">
        <ele>123.1</ele>
        <time>2022-09-29T08:16:09Z</time>
      </trkpt>
      <trkpt lat="48.62293" lon="2.01696">
        <ele>123</ele>
        <time>2022-09-29T08:16:17Z</time>
      </trkpt>
      <trkpt lat="48.62299" lon="2.01709">
        <ele>123</ele>
        <time>2022-09-29T08:16:25Z</time>
      </trkpt>
      <trkpt lat="48.62305" lon="2.01721">
        <ele>123</ele>
        <time>2022-09-29T08:16:32Z</time>
      </trkpt>
      <trkpt lat="48.6231" lon="2.01733">
        <ele>123.5</ele>
        <time>2022-09-29T08:16:39Z</time>
      </trkpt>
      <trkpt lat="48.62316" lon="2.01744">
        <ele>123.9</ele>
        <time>2022-09-29T08:16:46Z</time>
      </trkpt>
      <trkpt lat="48.62325" lon="2.01747">
        <ele>124</ele>
        <time>2022-09-29T08:16:52Z</time>
      </trkpt>
      <trkpt lat="48.62334" lon="2.01749">
        <ele>124</ele>
        <time>2022-09-29T08:16:59Z</time>
      </trkpt>
      <trkpt lat="48.62344" lon="2.01752">
        <ele>124.4</ele>
        <time>2022-09-29T08:17:07Z</time>
      </trkpt>
      <trkpt lat="48.62354" lon="2.01754">
        <ele>124.8</ele>
        <time>2022-09-29T08:17:15Z</time>
      </trkpt>
      <trkpt lat="48.62364" lon="2.01753">
        <ele>125</ele>
        <time>2022-09-29T08:17:23Z</time>
      </trkpt>
      <trkpt lat="48.62374" lon="2.01751">
        <ele>125</ele>
        <time>2022-09-29T08:17:31Z</time>
      </trkpt>
      <trkpt lat="48.62383" lon="2.01754">
        <ele>125</ele>
        <time>2022-09-29T08:17:38Z</time>
      </trkpt>
      <trkpt lat="48.62392" lon="2.01752">
        <ele>125.1</ele>
        <time>2022-09-29T08:17:47Z</time>
      </trkpt>
      <trkpt lat="48.62401" lon="2.01752">
        <ele>125.4</ele>
        <time>2022-09-29T08:17:56Z</time>
      </trkpt>
      <trkpt lat="48.6241" lon="2.01754">
        <ele>125.8</ele>
        <time>2022-09-29T08:18:03Z</time>
      </trkpt>
      <trkpt lat="48.62419" lon="2.01759">
        <ele>126.1</ele>
        <time>2022-09-29T08:18:10Z</time>
      </trkpt>
      <trkpt lat="48.62428" lon="2.01757">
        <ele>126.7</ele>
        <time>2022-09-29T08:18:17Z</time>
      </trkpt>
      <trkpt lat="48.62437" lon="2.01754">
        <ele>127.4</ele>
        <time>2022-09-29T08:18:23Z</time>
      </trkpt>
      <trkpt lat="48.62447" lon="2.01755">
        <ele>127.9</ele>
        <time>2022-09-29T08:18:31Z</time>
      </trkpt>
      <trkpt lat="48.62456" lon="2.01753">
        <ele>128.4</ele>
        <time>2022-09-29T08:18:40Z</time>
      </trkpt>
      <trkpt lat="48.62465" lon="2.01746">
        <ele>128.7</ele>
        <time>2022-09-29T08:18:47Z</time>
      </trkpt>
      <trkpt lat="48.62474" lon="2.01742">
        <ele>129.1</ele>
        <time>2022-09-29T08:18:54Z</time>
      </trkpt>
      <trkpt lat="48.62484" lon="2.01737">
        <ele>129.4</ele>
        <time>2022-09-29T08:19:01Z</time>
      </trkpt>
      <trkpt lat="48.62494" lon="2.01734">
        <ele>129.8</ele>
        <time>2022-09-29T08:19:09Z</time>
      </trkpt>
      <trkpt lat="48.62504" lon="2.01731">
        <ele>130.2</ele>
        <time>2022-09-29T08:19:16Z</time>
      </trkpt>
      <trkpt lat="48.62511" lon="2.01723">
        <ele>130.4</ele>
        <time>2022-09-29T08:19:22Z</time>
      </trkpt>
      <trkpt lat="48.62518" lon="2.01712">
        <ele>130.6</ele>
        <time>2022-09-29T08:19:29Z</time>
      </trkpt>
      <trkpt lat="48.62526" lon="2.01703">
        <ele>130.9</ele>
        <time>2022-09-29T08:19:36Z</time>
      </trkpt>
      <trkpt lat="48.62534" lon="2.01697">
        <ele>131.3</ele>
        <time>2022-09-29T08:19:43Z</time>
      </trkpt>
      <trkpt lat="48.62541" lon="2.01686">
        <ele>131.5</ele>
        <time>2022-09-29T08:19:51Z</time>
      </trkpt>
      <trkpt lat="48.62546" lon="2.01674">
        <ele>131.7</ele>
        <time>2022-09-29T08:19:58Z</time>
      </trkpt>
      <trkpt lat="48.62553" lon="2.01664">
        <ele>132</ele>
        <time>2022-09-29T08:20:05Z</time>
      </trkpt>
      <trkpt lat="48.62561" lon="2.01656">
        <ele>132.7</ele>
        <time>2022-09-29T08:20:12Z</time>
      </trkpt>
      <trkpt lat="48.6257" lon="2.01648">
        <ele>133.4</ele>
        <time>2022-09-29T08:20:19Z</time>
      </trkpt>
      <trkpt lat="48.62577" lon="2.01639">
        <ele>133.8</ele>
        <time>2022-09-29T08:20:27Z</time>
      </trkpt>
      <trkpt lat="48.62586" lon="2.01631">
        <ele>134.2</ele>
        <time>2022-09-29T08:20:33Z</time>
      </trkpt>
      <trkpt lat="48.62595" lon="2.01623">
        <ele>134.6</ele>
        <time>2022-09-29T08:20:40Z</time>
      </trkpt>
      <trkpt lat="48.62603" lon="2.01614">
        <ele>134.8</ele>
        <time>2022-09-29T08:20:47Z</time>
      </trkpt>
      <trkpt lat="48.62612" lon="2.01607">
        <ele>135</ele>
        <time>2022-09-29T08:20:54Z</time>
      </trkpt>
      <trkpt lat="48.6262" lon="2.01597">
        <ele>135.2</ele>
        <time>2022-09-29T08:21:01Z</time>
      </trkpt>
      <trkpt lat="48.62623" lon="2.01584">
        <ele>135</ele>
        <time>2022-09-29T08:21:18Z</time>
      </trkpt>
      <trkpt lat="48.62624" lon="2.0157">
        <ele>135.2</ele>
        <time>2022-09-29T08:21:28Z</time>
      </trkpt>
      <trkpt lat="48.62621" lon="2.01557">
        <ele>135.4</ele>
        <time>2022-09-29T08:21:36Z</time>
      </trkpt>
      <trkpt lat="48.62617" lon="2.01542">
        <ele>136</ele>
        <time>2022-09-29T08:21:44Z</time>
      </trkpt>
      <trkpt lat="48.62614" lon="2.01529">
        <ele>136.8</ele>
        <time>2022-09-29T08:21:51Z</time>
      </trkpt>
      <trkpt lat="48.62609" lon="2.01516">
        <ele>137.4</ele>
        <time>2022-09-29T08:21:59Z</time>
      </trkpt>
      <trkpt lat="48.62603" lon="2.01505">
        <ele>137.8</ele>
        <time>2022-09-29T08:22:06Z</time>
      </trkpt>
      <trkpt lat="48.62602" lon="2.01491">
        <ele>138.3</ele>
        <time>2022-09-29T08:22:14Z</time>
      </trkpt>
      <trkpt lat="48.62597" lon="2.01479">
        <ele>138.8</ele>
        <time>2022-09-29T08:22:21Z</time>
      </trkpt>
      <trkpt lat="48.62593" lon="2.01465">
        <ele>139.3</ele>
        <time>2022-09-29T08:22:28Z</time>
      </trkpt>
      <trkpt lat="48.6259" lon="2.01451">
        <ele>139.8</ele>
        <time>2022-09-29T08:22:35Z</time>
      </trkpt>
      <trkpt lat="48.62588" lon="2.01438">
        <ele>140.2</ele>
        <time>2022-09-29T08:22:42Z</time>
      </trkpt>
      <trkpt lat="48.62587" lon="2.01423">
        <ele>140.8</ele>
        <time>2022-09-29T08:22:51Z</time>
      </trkpt>
      <trkpt lat="48.62584" lon="2.01409">
        <ele>141</ele>
        <time>2022-09-29T08:22:58Z</time>
      </trkpt>
      <trkpt lat="48.6258" lon="2.01395">
        <ele>140.9</ele>
        <time>2022-09-29T08:23:05Z</time>
      </trkpt>
      <trkpt lat="48.62577" lon="2.01381">
        <ele>140.6</ele>
        <time>2022-09-29T08:23:11Z</time>
      </trkpt>
      <trkpt lat="48.62573" lon="2.01366">
        <ele>140.1</ele>
        <time>2022-09-29T08:23:18Z</time>
      </trkpt>
      <trkpt lat="48.62571" lon="2.01351">
        <ele>139.6</ele>
        <time>2022-09-29T08:23:25Z</time>
      </trkpt>
      <trkpt lat="48.62567" lon="2.01337">
        <ele>139.1</ele>
        <time>2022-09-29T08:23:33Z</time>
      </trkpt>
      <trkpt lat="48.62564" lon="2.01323">
        <ele>138.6</ele>
        <time>2022-09-29T08:23:41Z</time>
      </trkpt>
      <trkpt lat="48.62561" lon="2.0131">
        <ele>138.2</ele>
        <time>2022-09-29T08:23:50Z</time>
      </trkpt>
      <trkpt lat="48.6256" lon="2.01296">
        <ele>137.9</ele>
        <time>2022-09-29T08:23:58Z</time>
      </trkpt>
      <trkpt lat="48.62567" lon="2.01307">
        <ele>138</ele>
        <time>2022-09-29T08:27:16Z</time>
      </trkpt>
      <trkpt lat="48.62571" lon="2.01321">
        <ele>138.5</ele>
        <time>2022-09-29T08:27:24Z</time>
      </trkpt>
      <trkpt lat="48.62581" lon="2.01315">
        <ele>138.4</ele>
        <time>2022-09-29T08:27:34Z</time>
      </trkpt>
      <trkpt lat="48.62589" lon="2.01308">
        <ele>138.1</ele>
        <time>2022-09-29T08:27:42Z</time>
      </trkpt>
      <trkpt lat="48.62599" lon="2.01304">
        <ele>137.9</ele>
        <time>2022-09-29T08:27:51Z</time>
      </trkpt>
      <trkpt lat="48.62608" lon="2.01298">
        <ele>137.5</ele>
        <time>2022-09-29T08:27:58Z</time>
      </trkpt>
      <trkpt lat="48.62617" lon="2.01295">
        <ele>137.2</ele>
        <time>2022-09-29T08:28:04Z</time>
      </trkpt>
      <trkpt lat="48.62627" lon="2.01298">
        <ele>137.3</ele>
        <time>2022-09-29T08:28:11Z</time>
      </trkpt>
      <trkpt lat="48.62636" lon="2.013">
        <ele>137.4</ele>
        <time>2022-09-29T08:28:18Z</time>
      </trkpt>
      <trkpt lat="48.62647" lon="2.013">
        <ele>137.4</ele>
        <time>2022-09-29T08:28:26Z</time>
      </trkpt>
      <trkpt lat="48.62657" lon="2.01299">
        <ele>137.3</ele>
        <time>2022-09-29T08:28:32Z</time>
      </trkpt>
      <trkpt lat="48.62665" lon="2.01293">
        <ele>136.7</ele>
        <time>2022-09-29T08:28:38Z</time>
      </trkpt>
      <trkpt lat="48.62673" lon="2.01285">
        <ele>136.3</ele>
        <time>2022-09-29T08:28:45Z</time>
      </trkpt>
      <trkpt lat="48.62679" lon="2.01274">
        <ele>136</ele>
        <time>2022-09-29T08:28:51Z</time>
      </trkpt>
      <trkpt lat="48.62681" lon="2.0126">
        <ele>134.9</ele>
        <time>2022-09-29T08:28:57Z</time>
      </trkpt>
      <trkpt lat="48.62686" lon="2.01248">
        <ele>134.3</ele>
        <time>2022-09-29T08:29:05Z</time>
      </trkpt>
      <trkpt lat="48.6269" lon="2.01235">
        <ele>134.2</ele>
        <time>2022-09-29T08:29:11Z</time>
      </trkpt>
      <trkpt lat="48.62693" lon="2.0122">
        <ele>133.7</ele>
        <time>2022-09-29T08:29:18Z</time>
      </trkpt>
      <trkpt lat="48.62694" lon="2.01205">
        <ele>132.8</ele>
        <time>2022-09-29T08:29:24Z</time>
      </trkpt>
      <trkpt lat="48.62699" lon="2.01194">
        <ele>132.5</ele>
        <time>2022-09-29T08:29:30Z</time>
      </trkpt>
      <trkpt lat="48.62705" lon="2.01182">
        <ele>132.8</ele>
        <time>2022-09-29T08:29:37Z</time>
      </trkpt>
      <trkpt lat="48.62714" lon="2.01176">
        <ele>133.2</ele>
        <time>2022-09-29T08:29:44Z</time>
      </trkpt>
      <trkpt lat="48.62722" lon="2.01168">
        <ele>133.1</ele>
        <time>2022-09-29T08:29:50Z</time>
      </trkpt>
      <trkpt lat="48.62729" lon="2.01158">
        <ele>132.6</ele>
        <time>2022-09-29T08:29:56Z</time>
      </trkpt>
      <trkpt lat="48.62735" lon="2.01146">
        <ele>131.6</ele>
        <time>2022-09-29T08:30:02Z</time>
      </trkpt>
      <trkpt lat="48.62743" lon="2.01139">
        <ele>131</ele>
        <time>2022-09-29T08:30:07Z</time>
      </trkpt>
      <trkpt lat="48.62753" lon="2.01134">
        <ele>130.7</ele>
        <time>2022-09-29T08:30:13Z</time>
      </trkpt>
      <trkpt lat="48.62762" lon="2.0113">
        <ele>130.4</ele>
        <time>2022-09-29T08:30:20Z</time>
      </trkpt>
      <trkpt lat="48.62771" lon="2.01131">
        <ele>130.4</ele>
        <time>2022-09-29T08:30:26Z</time>
      </trkpt>
      <trkpt lat="48.62781" lon="2.01134">
        <ele>130.8</ele>
        <time>2022-09-29T08:30:35Z</time>
      </trkpt>
      <trkpt lat="48.62791" lon="2.01133">
        <ele>131.2</ele>
        <time>2022-09-29T08:30:43Z</time>
      </trkpt>
      <trkpt lat="48.628" lon="2.01137">
        <ele>131.7</ele>
        <time>2022-09-29T08:30:57Z</time>
      </trkpt>
      <trkpt lat="48.6281" lon="2.01139">
        <ele>132.5</ele>
        <time>2022-09-29T08:31:04Z</time>
      </trkpt>
      <trkpt lat="48.62819" lon="2.01133">
        <ele>133.2</ele>
        <time>2022-09-29T08:31:12Z</time>
      </trkpt>
      <trkpt lat="48.62828" lon="2.01128">
        <ele>134.1</ele>
        <time>2022-09-29T08:31:21Z</time>
      </trkpt>
      <trkpt lat="48.62837" lon="2.01122">
        <ele>134.7</ele>
        <time>2022-09-29T08:31:28Z</time>
      </trkpt>
      <trkpt lat="48.62846" lon="2.01113">
        <ele>134.9</ele>
        <time>2022-09-29T08:31:35Z</time>
      </trkpt>
      <trkpt lat="48.62853" lon="2.01104">
        <ele>134.9</ele>
        <time>2022-09-29T08:31:42Z</time>
      </trkpt>
      <trkpt lat="48.6286" lon="2.01092">
        <ele>134.6</ele>
        <time>2022-09-29T08:31:50Z</time>
      </trkpt>
      <trkpt lat="48.62865" lon="2.0108">
        <ele>134.7</ele>
        <time>2022-09-29T08:31:57Z</time>
      </trkpt>
      <trkpt lat="48.62872" lon="2.0107">
        <ele>135.2</ele>
        <time>2022-09-29T08:32:05Z</time>
      </trkpt>
      <trkpt lat="48.62877" lon="2.01059">
        <ele>135.4</ele>
        <time>2022-09-29T08:32:12Z</time>
      </trkpt>
      <trkpt lat="48.62881" lon="2.01044">
        <ele>135.1</ele>
        <time>2022-09-29T08:32:19Z</time>
      </trkpt>
      <trkpt lat="48.6288" lon="2.01029">
        <ele>134.1</ele>
        <time>2022-09-29T08:32:26Z</time>
      </trkpt>
      <trkpt lat="48.62883" lon="2.01014">
        <ele>133.8</ele>
        <time>2022-09-29T08:32:33Z</time>
      </trkpt>
      <trkpt lat="48.62887" lon="2.01001">
        <ele>133.8</ele>
        <time>2022-09-29T08:32:40Z</time>
      </trkpt>
      <trkpt lat="48.62889" lon="2.00987">
        <ele>133</ele>
        <time>2022-09-29T08:32:46Z</time>
      </trkpt>
      <trkpt lat="48.62897" lon="2.00977">
        <ele>133</ele>
        <time>2022-09-29T08:32:53Z</time>
      </trkpt>
      <trkpt lat="48.62901" lon="2.00965">
        <ele>132.1</ele>
        <time>2022-09-29T08:33:00Z</time>
      </trkpt>
      <trkpt lat="48.62907" lon="2.00952">
        <ele>131.1</ele>
        <time>2022-09-29T08:33:06Z</time>
      </trkpt>
      <trkpt lat="48.62913" lon="2.0094">
        <ele>130.3</ele>
        <time>2022-09-29T08:33:12Z</time>
      </trkpt>
      <trkpt lat="48.62921" lon="2.00933">
        <ele>130.1</ele>
        <time>2022-09-29T08:33:18Z</time>
      </trkpt>
      <trkpt lat="48.62929" lon="2.00938">
        <ele>131.4</ele>
        <time>2022-09-29T08:33:29Z</time>
      </trkpt>
      <trkpt lat="48.62937" lon="2.00946">
        <ele>133.5</ele>
        <time>2022-09-29T08:33:37Z</time>
      </trkpt>
      <trkpt lat="48.62946" lon="2.00954">
        <ele>135.8</ele>
        <time>2022-09-29T08:33:45Z</time>
      </trkpt>
      <trkpt lat="48.62955" lon="2.00949">
        <ele>135.2</ele>
        <time>2022-09-29T08:33:53Z</time>
      </trkpt>
      <trkpt lat="48.62964" lon="2.00955">
        <ele>136.8</ele>
        <time>2022-09-29T08:34:02Z</time>
      </trkpt>
      <trkpt lat="48.62972" lon="2.0096">
        <ele>138.4</ele>
        <time>2022-09-29T08:34:10Z</time>
      </trkpt>
      <trkpt lat="48.62982" lon="2.00958">
        <ele>137.8</ele>
        <time>2022-09-29T08:34:18Z</time>
      </trkpt>
      <trkpt lat="48.62992" lon="2.00957">
        <ele>137.4</ele>
        <time>2022-09-29T08:34:26Z</time>
      </trkpt>
      <trkpt lat="48.63001" lon="2.00956">
        <ele>137</ele>
        <time>2022-09-29T08:34:34Z</time>
      </trkpt>
      <trkpt lat="48.63011" lon="2.00951">
        <ele>136.1</ele>
        <time>2022-09-29T08:34:40Z</time>
      </trkpt>
      <trkpt lat="48.63021" lon="2.00949">
        <ele>135.7</ele>
        <time>2022-09-29T08:34:47Z</time>
      </trkpt>
      <trkpt lat="48.63023" lon="2.00936">
        <ele>134.3</ele>
        <time>2022-09-29T08:34:56Z</time>
      </trkpt>
      <trkpt lat="48.63024" lon="2.00921">
        <ele>133.2</ele>
        <time>2022-09-29T08:36:57Z</time>
      </trkpt>
      <trkpt lat="48.63023" lon="2.00907">
        <ele>132.8</ele>
        <time>2022-09-29T08:37:02Z</time>
      </trkpt>
      <trkpt lat="48.63025" lon="2.00892">
        <ele>132.8</ele>
        <time>2022-09-29T08:37:08Z</time>
      </trkpt>
      <trkpt lat="48.63026" lon="2.00878">
        <ele>133.2</ele>
        <time>2022-09-29T08:37:14Z</time>
      </trkpt>
      <trkpt lat="48.63029" lon="2.00864">
        <ele>134.1</ele>
        <time>2022-09-29T08:37:20Z</time>
      </trkpt>
      <trkpt lat="48.63029" lon="2.00849">
        <ele>135.1</ele>
        <time>2022-09-29T08:37:27Z</time>
      </trkpt>
      <trkpt lat="48.63029" lon="2.00835">
        <ele>136.1</ele>
        <time>2022-09-29T08:37:33Z</time>
      </trkpt>
      <trkpt lat="48.6303" lon="2.00821">
        <ele>137</ele>
        <time>2022-09-29T08:37:39Z</time>
      </trkpt>
      <trkpt lat="48.6303" lon="2.00807">
        <ele>137.6</ele>
        <time>2022-09-29T08:37:46Z</time>
      </trkpt>
      <trkpt lat="48.6303" lon="2.00793">
        <ele>138.6</ele>
        <time>2022-09-29T08:37:52Z</time>
      </trkpt>
      <trkpt lat="48.6303" lon="2.00778">
        <ele>139.5</ele>
        <time>2022-09-29T08:37:58Z</time>
      </trkpt>
      <trkpt lat="48.6303" lon="2.00764">
        <ele>140.7</ele>
        <time>2022-09-29T08:38:05Z</time>
      </trkpt>
      <trkpt lat="48.6303" lon="2.0075">
        <ele>141.6</ele>
        <time>2022-09-29T08:38:12Z</time>
      </trkpt>
      <trkpt lat="48.63029" lon="2.00735">
        <ele>142.3</ele>
        <time>2022-09-29T08:38:20Z</time>
      </trkpt>
      <trkpt lat="48.63027" lon="2.0072">
        <ele>143.1</ele>
        <time>2022-09-29T08:38:28Z</time>
      </trkpt>
      <trkpt lat="48.63026" lon="2.00706">
        <ele>144.5</ele>
        <time>2022-09-29T08:38:36Z</time>
      </trkpt>
      <trkpt lat="48.63024" lon="2.00691">
        <ele>145.8</ele>
        <time>2022-09-29T08:38:47Z</time>
      </trkpt>
      <trkpt lat="48.63016" lon="2.00682">
        <ele>146.1</ele>
        <time>2022-09-29T08:38:54Z</time>
      </trkpt>
      <trkpt lat="48.63014" lon="2.00668">
        <ele>147.8</ele>
        <time>2022-09-29T08:39:05Z</time>
      </trkpt>
      <trkpt lat="48.63015" lon="2.00655">
        <ele>148.7</ele>
        <time>2022-09-29T08:39:11Z</time>
      </trkpt>
      <trkpt lat="48.63019" lon="2.00641">
        <ele>149.6</ele>
        <time>2022-09-29T08:39:17Z</time>
      </trkpt>
      <trkpt lat="48.63016" lon="2.00627">
        <ele>148.9</ele>
        <time>2022-09-29T08:39:26Z</time>
      </trkpt>
      <trkpt lat="48.63012" lon="2.00613">
        <ele>148.1</ele>
        <time>2022-09-29T08:39:34Z</time>
      </trkpt>
      <trkpt lat="48.63008" lon="2.006">
        <ele>146.4</ele>
        <time>2022-09-29T08:39:42Z</time>
      </trkpt>
      <trkpt lat="48.63005" lon="2.00586">
        <ele>144.4</ele>
        <time>2022-09-29T08:39:53Z</time>
      </trkpt>
      <trkpt lat="48.62999" lon="2.00574">
        <ele>143</ele>
        <time>2022-09-29T08:39:59Z</time>
      </trkpt>
      <trkpt lat="48.62996" lon="2.0056">
        <ele>141.3</ele>
        <time>2022-09-29T08:40:07Z</time>
      </trkpt>
      <trkpt lat="48.6299" lon="2.00546">
        <ele>139.3</ele>
        <time>2022-09-29T08:40:13Z</time>
      </trkpt>
      <trkpt lat="48.62984" lon="2.00533">
        <ele>137.1</ele>
        <time>2022-09-29T08:40:19Z</time>
      </trkpt>
      <trkpt lat="48.62978" lon="2.00519">
        <ele>135.4</ele>
        <time>2022-09-29T08:40:24Z</time>
      </trkpt>
      <trkpt lat="48.62969" lon="2.00511">
        <ele>134.1</ele>
        <time>2022-09-29T08:40:29Z</time>
      </trkpt>
      <trkpt lat="48.62964" lon="2.00499">
        <ele>133</ele>
        <time>2022-09-29T08:40:34Z</time>
      </trkpt>
      <trkpt lat="48.62959" lon="2.00486">
        <ele>132</ele>
        <time>2022-09-29T08:40:39Z</time>
      </trkpt>
      <trkpt lat="48.62955" lon="2.00473">
        <ele>131.1</ele>
        <time>2022-09-29T08:40:46Z</time>
      </trkpt>
      <trkpt lat="48.62948" lon="2.00461">
        <ele>130.3</ele>
        <time>2022-09-29T08:40:52Z</time>
      </trkpt>
      <trkpt lat="48.62949" lon="2.00447">
        <ele>129.3</ele>
        <time>2022-09-29T08:40:59Z</time>
      </trkpt>
      <trkpt lat="48.62948" lon="2.00433">
        <ele>128.3</ele>
        <time>2022-09-29T08:41:05Z</time>
      </trkpt>
      <trkpt lat="48.62943" lon="2.00421">
        <ele>127.3</ele>
        <time>2022-09-29T08:41:11Z</time>
      </trkpt>
      <trkpt lat="48.62939" lon="2.00407">
        <ele>126.2</ele>
        <time>2022-09-29T08:41:19Z</time>
      </trkpt>
      <trkpt lat="48.6294" lon="2.00392">
        <ele>125.8</ele>
        <time>2022-09-29T08:41:28Z</time>
      </trkpt>
      <trkpt lat="48.62949" lon="2.00388">
        <ele>126.1</ele>
        <time>2022-09-29T08:42:10Z</time>
      </trkpt>
      <trkpt lat="48.62958" lon="2.00382">
        <ele>126.3</ele>
        <time>2022-09-29T08:42:17Z</time>
      </trkpt>
      <trkpt lat="48.62967" lon="2.00373">
        <ele>126.3</ele>
        <time>2022-09-29T08:42:23Z</time>
      </trkpt>
      <trkpt lat="48.62976" lon="2.00364">
        <ele>126.3</ele>
        <time>2022-09-29T08:42:29Z</time>
      </trkpt>
      <trkpt lat="48.62983" lon="2.00355">
        <ele>126.8</ele>
        <time>2022-09-29T08:42:35Z</time>
      </trkpt>
      <trkpt lat="48.6299" lon="2.00345">
        <ele>127.3</ele>
        <time>2022-09-29T08:42:42Z</time>
      </trkpt>
      <trkpt lat="48.62998" lon="2.00336">
        <ele>127.8</ele>
        <time>2022-09-29T08:42:49Z</time>
      </trkpt>
      <trkpt lat="48.63005" lon="2.00327">
        <ele>128.5</ele>
        <time>2022-09-29T08:42:55Z</time>
      </trkpt>
      <trkpt lat="48.6301" lon="2.00315">
        <ele>129.1</ele>
        <time>2022-09-29T08:43:02Z</time>
      </trkpt>
      <trkpt lat="48.63017" lon="2.00305">
        <ele>129.7</ele>
        <time>2022-09-29T08:43:08Z</time>
      </trkpt>
      <trkpt lat="48.63023" lon="2.00294">
        <ele>129.7</ele>
        <time>2022-09-29T08:43:15Z</time>
      </trkpt>
      <trkpt lat="48.63031" lon="2.00286">
        <ele>129.9</ele>
        <time>2022-09-29T08:43:20Z</time>
      </trkpt>
      <trkpt lat="48.63039" lon="2.00279">
        <ele>129.9</ele>
        <time>2022-09-29T08:43:27Z</time>
      </trkpt>
      <trkpt lat="48.63049" lon="2.00273">
        <ele>129.8</ele>
        <time>2022-09-29T08:43:34Z</time>
      </trkpt>
      <trkpt lat="48.63058" lon="2.00268">
        <ele>129.6</ele>
        <time>2022-09-29T08:43:40Z</time>
      </trkpt>
      <trkpt lat="48.63067" lon="2.00263">
        <ele>129.2</ele>
        <time>2022-09-29T08:43:47Z</time>
      </trkpt>
      <trkpt lat="48.63076" lon="2.00258">
        <ele>128.8</ele>
        <time>2022-09-29T08:43:54Z</time>
      </trkpt>
      <trkpt lat="48.63085" lon="2.00253">
        <ele>128.3</ele>
        <time>2022-09-29T08:44:00Z</time>
      </trkpt>
      <trkpt lat="48.63094" lon="2.00246">
        <ele>127.2</ele>
        <time>2022-09-29T08:44:07Z</time>
      </trkpt>
      <trkpt lat="48.63102" lon="2.0024">
        <ele>126.1</ele>
        <time>2022-09-29T08:44:13Z</time>
      </trkpt>
      <trkpt lat="48.6311" lon="2.00236">
        <ele>125.6</ele>
        <time>2022-09-29T08:44:18Z</time>
      </trkpt>
      <trkpt lat="48.63121" lon="2.00236">
        <ele>125.6</ele>
        <time>2022-09-29T08:44:23Z</time>
      </trkpt>
      <trkpt lat="48.6313" lon="2.0023">
        <ele>125.3</ele>
        <time>2022-09-29T08:44:28Z</time>
      </trkpt>
      <trkpt lat="48.63139" lon="2.00225">
        <ele>125.2</ele>
        <time>2022-09-29T08:44:33Z</time>
      </trkpt>
      <trkpt lat="48.63148" lon="2.00223">
        <ele>125.4</ele>
        <time>2022-09-29T08:44:40Z</time>
      </trkpt>
      <trkpt lat="48.63157" lon="2.0022">
        <ele>125.6</ele>
        <time>2022-09-29T08:44:47Z</time>
      </trkpt>
      <trkpt lat="48.63167" lon="2.00219">
        <ele>125.9</ele>
        <time>2022-09-29T08:44:54Z</time>
      </trkpt>
      <trkpt lat="48.63176" lon="2.00217">
        <ele>126.4</ele>
        <time>2022-09-29T08:45:02Z</time>
      </trkpt>
      <trkpt lat="48.63185" lon="2.00212">
        <ele>126.7</ele>
        <time>2022-09-29T08:45:09Z</time>
      </trkpt>
      <trkpt lat="48.63195" lon="2.00212">
        <ele>127.2</ele>
        <time>2022-09-29T08:45:17Z</time>
      </trkpt>
      <trkpt lat="48.63204" lon="2.00206">
        <ele>127.2</ele>
        <time>2022-09-29T08:45:25Z</time>
      </trkpt>
      <trkpt lat="48.63213" lon="2.00207">
        <ele>127.6</ele>
        <time>2022-09-29T08:45:31Z</time>
      </trkpt>
      <trkpt lat="48.63222" lon="2.00201">
        <ele>127.4</ele>
        <time>2022-09-29T08:45:37Z</time>
      </trkpt>
      <trkpt lat="48.63231" lon="2.00199">
        <ele>127.6</ele>
        <time>2022-09-29T08:45:43Z</time>
      </trkpt>
      <trkpt lat="48.6324" lon="2.00198">
        <ele>127.8</ele>
        <time>2022-09-29T08:45:50Z</time>
      </trkpt>
      <trkpt lat="48.6325" lon="2.00197">
        <ele>128.1</ele>
        <time>2022-09-29T08:45:57Z</time>
      </trkpt>
      <trkpt lat="48.63259" lon="2.00196">
        <ele>128.4</ele>
        <time>2022-09-29T08:46:03Z</time>
      </trkpt>
      <trkpt lat="48.63269" lon="2.00198">
        <ele>128.9</ele>
        <time>2022-09-29T08:46:10Z</time>
      </trkpt>
      <trkpt lat="48.63279" lon="2.00195">
        <ele>129</ele>
        <time>2022-09-29T08:46:17Z</time>
      </trkpt>
      <trkpt lat="48.63288" lon="2.00191">
        <ele>129.3</ele>
        <time>2022-09-29T08:46:26Z</time>
      </trkpt>
      <trkpt lat="48.63298" lon="2.00189">
        <ele>129.5</ele>
        <time>2022-09-29T08:46:36Z</time>
      </trkpt>
      <trkpt lat="48.63308" lon="2.0019">
        <ele>130</ele>
        <time>2022-09-29T08:46:45Z</time>
      </trkpt>
      <trkpt lat="48.63318" lon="2.00192">
        <ele>130.3</ele>
        <time>2022-09-29T08:46:51Z</time>
      </trkpt>
      <trkpt lat="48.63328" lon="2.00191">
        <ele>130.7</ele>
        <time>2022-09-29T08:46:58Z</time>
      </trkpt>
      <trkpt lat="48.63337" lon="2.00188">
        <ele>131</ele>
        <time>2022-09-29T08:47:05Z</time>
      </trkpt>
      <trkpt lat="48.63347" lon="2.00184">
        <ele>131.4</ele>
        <time>2022-09-29T08:47:14Z</time>
      </trkpt>
      <trkpt lat="48.63356" lon="2.00181">
        <ele>131.8</ele>
        <time>2022-09-29T08:47:20Z</time>
      </trkpt>
      <trkpt lat="48.63365" lon="2.00178">
        <ele>132.1</ele>
        <time>2022-09-29T08:47:27Z</time>
      </trkpt>
      <trkpt lat="48.63375" lon="2.00178">
        <ele>132.8</ele>
        <time>2022-09-29T08:47:33Z</time>
      </trkpt>
      <trkpt lat="48.63385" lon="2.00176">
        <ele>133.4</ele>
        <time>2022-09-29T08:47:40Z</time>
      </trkpt>
      <trkpt lat="48.63395" lon="2.00172">
        <ele>133.8</ele>
        <time>2022-09-29T08:47:47Z</time>
      </trkpt>
      <trkpt lat="48.63404" lon="2.00168">
        <ele>134.2</ele>
        <time>2022-09-29T08:47:54Z</time>
      </trkpt>
      <trkpt lat="48.63414" lon="2.00162">
        <ele>134.5</ele>
        <time>2022-09-29T08:48:01Z</time>
      </trkpt>
      <trkpt lat="48.63423" lon="2.00157">
        <ele>134.8</ele>
        <time>2022-09-29T08:48:08Z</time>
      </trkpt>
      <trkpt lat="48.63433" lon="2.00157">
        <ele>135.8</ele>
        <time>2022-09-29T08:48:15Z</time>
      </trkpt>
      <trkpt lat="48.63443" lon="2.00155">
        <ele>136.5</ele>
        <time>2022-09-29T08:48:23Z</time>
      </trkpt>
      <trkpt lat="48.63451" lon="2.00147">
        <ele>135.8</ele>
        <time>2022-09-29T08:48:33Z</time>
      </trkpt>
      <trkpt lat="48.63461" lon="2.00148">
        <ele>135.8</ele>
        <time>2022-09-29T08:48:42Z</time>
      </trkpt>
      <trkpt lat="48.6347" lon="2.0015">
        <ele>135.8</ele>
        <time>2022-09-29T08:48:48Z</time>
      </trkpt>
      <trkpt lat="48.63479" lon="2.00152">
        <ele>135.8</ele>
        <time>2022-09-29T08:48:55Z</time>
      </trkpt>
      <trkpt lat="48.63487" lon="2.00158">
        <ele>136</ele>
        <time>2022-09-29T08:49:02Z</time>
      </trkpt>
      <trkpt lat="48.63496" lon="2.00162">
        <ele>135.9</ele>
        <time>2022-09-29T08:49:08Z</time>
      </trkpt>
      <trkpt lat="48.63506" lon="2.00163">
        <ele>136.3</ele>
        <time>2022-09-29T08:49:15Z</time>
      </trkpt>
      <trkpt lat="48.63516" lon="2.00163">
        <ele>136.9</ele>
        <time>2022-09-29T08:49:21Z</time>
      </trkpt>
      <trkpt lat="48.63524" lon="2.00157">
        <ele>137.1</ele>
        <time>2022-09-29T08:49:27Z</time>
      </trkpt>
      <trkpt lat="48.63532" lon="2.00149">
        <ele>137</ele>
        <time>2022-09-29T08:49:34Z</time>
      </trkpt>
      <trkpt lat="48.63539" lon="2.0014">
        <ele>136.9</ele>
        <time>2022-09-29T08:49:40Z</time>
      </trkpt>
      <trkpt lat="48.63549" lon="2.00135">
        <ele>137.4</ele>
        <time>2022-09-29T08:49:48Z</time>
      </trkpt>
      <trkpt lat="48.63558" lon="2.00134">
        <ele>138</ele>
        <time>2022-09-29T08:49:55Z</time>
      </trkpt>
      <trkpt lat="48.63568" lon="2.00131">
        <ele>138.6</ele>
        <time>2022-09-29T08:50:03Z</time>
      </trkpt>
      <trkpt lat="48.63576" lon="2.00128">
        <ele>139.1</ele>
        <time>2022-09-29T08:50:10Z</time>
      </trkpt>
      <trkpt lat="48.63585" lon="2.00123">
        <ele>139.5</ele>
        <time>2022-09-29T08:50:22Z</time>
      </trkpt>
      <trkpt lat="48.63582" lon="2.0011">
        <ele>138.8</ele>
        <time>2022-09-29T08:50:32Z</time>
      </trkpt>
      <trkpt lat="48.63574" lon="2.001">
        <ele>137.9</ele>
        <time>2022-09-29T08:50:40Z</time>
      </trkpt>
      <trkpt lat="48.63565" lon="2.00095">
        <ele>137.1</ele>
        <time>2022-09-29T08:50:47Z</time>
      </trkpt>
      <trkpt lat="48.63558" lon="2.00087">
        <ele>136.3</ele>
        <time>2022-09-29T08:50:56Z</time>
      </trkpt>
      <trkpt lat="48.63549" lon="2.00082">
        <ele>135.8</ele>
        <time>2022-09-29T08:51:03Z</time>
      </trkpt>
      <trkpt lat="48.6354" lon="2.00078">
        <ele>135.6</ele>
        <time>2022-09-29T08:51:10Z</time>
      </trkpt>
      <trkpt lat="48.63532" lon="2.00073">
        <ele>135.5</ele>
        <time>2022-09-29T08:51:17Z</time>
      </trkpt>
      <trkpt lat="48.63523" lon="2.00066">
        <ele>135.5</ele>
        <time>2022-09-29T08:51:23Z</time>
      </trkpt>
      <trkpt lat="48.63515" lon="2.00061">
        <ele>135.4</ele>
        <time>2022-09-29T08:51:29Z</time>
      </trkpt>
      <trkpt lat="48.63506" lon="2.00055">
        <ele>135.3</ele>
        <time>2022-09-29T08:51:36Z</time>
      </trkpt>
      <trkpt lat="48.63498" lon="2.00049">
        <ele>135.2</ele>
        <time>2022-09-29T08:51:43Z</time>
      </trkpt>
      <trkpt lat="48.63488" lon="2.00043">
        <ele>135</ele>
        <time>2022-09-29T08:51:50Z</time>
      </trkpt>
      <trkpt lat="48.63477" lon="2.00043">
        <ele>134.6</ele>
        <time>2022-09-29T08:51:56Z</time>
      </trkpt>
      <trkpt lat="48.63468" lon="2.00041">
        <ele>134.4</ele>
        <time>2022-09-29T08:52:02Z</time>
      </trkpt>
      <trkpt lat="48.63459" lon="2.00037">
        <ele>134.5</ele>
        <time>2022-09-29T08:52:09Z</time>
      </trkpt>
      <trkpt lat="48.6345" lon="2.00033">
        <ele>134.6</ele>
        <time>2022-09-29T08:52:16Z</time>
      </trkpt>
      <trkpt lat="48.63441" lon="2.00034">
        <ele>134.4</ele>
        <time>2022-09-29T08:52:22Z</time>
      </trkpt>
      <trkpt lat="48.63431" lon="2.00032">
        <ele>134.2</ele>
        <time>2022-09-29T08:52:28Z</time>
      </trkpt>
      <trkpt lat="48.6342" lon="2.00031">
        <ele>133.9</ele>
        <time>2022-09-29T08:52:36Z</time>
      </trkpt>
      <trkpt lat="48.63412" lon="2.00027">
        <ele>133.9</ele>
        <time>2022-09-29T08:52:42Z</time>
      </trkpt>
      <trkpt lat="48.63401" lon="2.00025">
        <ele>133.7</ele>
        <time>2022-09-29T08:52:49Z</time>
      </trkpt>
      <trkpt lat="48.63391" lon="2.00024">
        <ele>133.4</ele>
        <time>2022-09-29T08:52:56Z</time>
      </trkpt>
      <trkpt lat="48.63382" lon="2.00022">
        <ele>133.4</ele>
        <time>2022-09-29T08:53:03Z</time>
      </trkpt>
      <trkpt lat="48.63372" lon="2.0002">
        <ele>133.6</ele>
        <time>2022-09-29T08:53:10Z</time>
      </trkpt>
      <trkpt lat="48.63363" lon="2.00018">
        <ele>133.7</ele>
        <time>2022-09-29T08:53:17Z</time>
      </trkpt>
      <trkpt lat="48.63354" lon="2.00014">
        <ele>134</ele>
        <time>2022-09-29T08:53:24Z</time>
      </trkpt>
      <trkpt lat="48.63345" lon="2.00014">
        <ele>134</ele>
        <time>2022-09-29T08:53:31Z</time>
      </trkpt>
      <trkpt lat="48.63335" lon="2.00013">
        <ele>134</ele>
        <time>2022-09-29T08:53:39Z</time>
      </trkpt>
      <trkpt lat="48.63328" lon="2.00005">
        <ele>134.7</ele>
        <time>2022-09-29T08:53:54Z</time>
      </trkpt>
      <trkpt lat="48.63329" lon="1.99989">
        <ele>135.4</ele>
        <time>2022-09-29T08:54:02Z</time>
      </trkpt>
      <trkpt lat="48.63329" lon="1.99974">
        <ele>135.9</ele>
        <time>2022-09-29T08:54:10Z</time>
      </trkpt>
      <trkpt lat="48.63329" lon="1.9996">
        <ele>136.4</ele>
        <time>2022-09-29T08:54:16Z</time>
      </trkpt>
      <trkpt lat="48.63329" lon="1.99944">
        <ele>137</ele>
        <time>2022-09-29T08:54:22Z</time>
      </trkpt>
      <trkpt lat="48.63328" lon="1.99931">
        <ele>137.5</ele>
        <time>2022-09-29T08:54:28Z</time>
      </trkpt>
      <trkpt lat="48.63329" lon="1.99916">
        <ele>138</ele>
        <time>2022-09-29T08:54:35Z</time>
      </trkpt>
      <trkpt lat="48.63329" lon="1.99902">
        <ele>139.1</ele>
        <time>2022-09-29T08:54:42Z</time>
      </trkpt>
      <trkpt lat="48.6333" lon="1.99886">
        <ele>140.1</ele>
        <time>2022-09-29T08:54:49Z</time>
      </trkpt>
      <trkpt lat="48.6333" lon="1.99871">
        <ele>140.6</ele>
        <time>2022-09-29T08:54:56Z</time>
      </trkpt>
      <trkpt lat="48.6333" lon="1.99857">
        <ele>141.3</ele>
        <time>2022-09-29T08:55:03Z</time>
      </trkpt>
      <trkpt lat="48.63331" lon="1.99843">
        <ele>142.3</ele>
        <time>2022-09-29T08:55:10Z</time>
      </trkpt>
      <trkpt lat="48.63329" lon="1.99829">
        <ele>143.3</ele>
        <time>2022-09-29T08:55:18Z</time>
      </trkpt>
      <trkpt lat="48.6333" lon="1.99815">
        <ele>144.4</ele>
        <time>2022-09-29T08:55:26Z</time>
      </trkpt>
      <trkpt lat="48.63334" lon="1.99801">
        <ele>145.4</ele>
        <time>2022-09-29T08:55:35Z</time>
      </trkpt>
      <trkpt lat="48.63334" lon="1.99786">
        <ele>146.4</ele>
        <time>2022-09-29T08:55:44Z</time>
      </trkpt>
      <trkpt lat="48.63334" lon="1.99771">
        <ele>147.5</ele>
        <time>2022-09-29T08:55:53Z</time>
      </trkpt>
      <trkpt lat="48.63333" lon="1.99758">
        <ele>148.4</ele>
        <time>2022-09-29T08:56:00Z</time>
      </trkpt>
      <trkpt lat="48.63332" lon="1.99744">
        <ele>148.9</ele>
        <time>2022-09-29T08:56:07Z</time>
      </trkpt>
      <trkpt lat="48.63333" lon="1.9973">
        <ele>149</ele>
        <time>2022-09-29T08:56:15Z</time>
      </trkpt>
      <trkpt lat="48.63336" lon="1.99718">
        <ele>149.1</ele>
        <time>2022-09-29T08:56:21Z</time>
      </trkpt>
      <trkpt lat="48.63339" lon="1.99704">
        <ele>149.4</ele>
        <time>2022-09-29T08:56:28Z</time>
      </trkpt>
      <trkpt lat="48.6334" lon="1.9969">
        <ele>149.3</ele>
        <time>2022-09-29T08:57:05Z</time>
      </trkpt>
      <trkpt lat="48.63343" lon="1.99677">
        <ele>149.1</ele>
        <time>2022-09-29T08:57:11Z</time>
      </trkpt>
      <trkpt lat="48.63344" lon="1.99663">
        <ele>148.5</ele>
        <time>2022-09-29T08:57:18Z</time>
      </trkpt>
      <trkpt lat="48.63345" lon="1.99649">
        <ele>147.8</ele>
        <time>2022-09-29T08:57:26Z</time>
      </trkpt>
      <trkpt lat="48.63346" lon="1.99635">
        <ele>147</ele>
        <time>2022-09-29T08:57:35Z</time>
      </trkpt>
      <trkpt lat="48.63345" lon="1.9962">
        <ele>145.9</ele>
        <time>2022-09-29T08:57:42Z</time>
      </trkpt>
      <trkpt lat="48.6334" lon="1.99606">
        <ele>144.4</ele>
        <time>2022-09-29T08:57:51Z</time>
      </trkpt>
      <trkpt lat="48.63335" lon="1.99594">
        <ele>143</ele>
        <time>2022-09-29T08:57:57Z</time>
      </trkpt>
      <trkpt lat="48.63329" lon="1.99584">
        <ele>141.6</ele>
        <time>2022-09-29T08:58:04Z</time>
      </trkpt>
      <trkpt lat="48.63321" lon="1.99576">
        <ele>140.3</ele>
        <time>2022-09-29T08:58:10Z</time>
      </trkpt>
      <trkpt lat="48.63314" lon="1.99566">
        <ele>139.1</ele>
        <time>2022-09-29T08:58:17Z</time>
      </trkpt>
      <trkpt lat="48.63306" lon="1.99557">
        <ele>138.1</ele>
        <time>2022-09-29T08:58:25Z</time>
      </trkpt>
      <trkpt lat="48.63297" lon="1.99554">
        <ele>137</ele>
        <time>2022-09-29T08:58:32Z</time>
      </trkpt>
      <trkpt lat="48.63286" lon="1.9955">
        <ele>135.9</ele>
        <time>2022-09-29T08:58:39Z</time>
      </trkpt>
      <trkpt lat="48.63278" lon="1.99544">
        <ele>135</ele>
        <time>2022-09-29T08:58:46Z</time>
      </trkpt>
      <trkpt lat="48.63268" lon="1.99542">
        <ele>134.1</ele>
        <time>2022-09-29T08:58:53Z</time>
      </trkpt>
      <trkpt lat="48.63258" lon="1.9954">
        <ele>133.2</ele>
        <time>2022-09-29T08:59:00Z</time>
      </trkpt>
      <trkpt lat="48.63248" lon="1.99536">
        <ele>132.3</ele>
        <time>2022-09-29T08:59:08Z</time>
      </trkpt>
      <trkpt lat="48.63239" lon="1.99531">
        <ele>131.8</ele>
        <time>2022-09-29T08:59:15Z</time>
      </trkpt>
      <trkpt lat="48.63231" lon="1.99524">
        <ele>131.2</ele>
        <time>2022-09-29T08:59:21Z</time>
      </trkpt>
      <trkpt lat="48.63221" lon="1.99521">
        <ele>130.7</ele>
        <time>2022-09-29T08:59:27Z</time>
      </trkpt>
      <trkpt lat="48.63212" lon="1.99514">
        <ele>130.2</ele>
        <time>2022-09-29T08:59:34Z</time>
      </trkpt>
      <trkpt lat="48.63204" lon="1.99507">
        <ele>129.3</ele>
        <time>2022-09-29T08:59:39Z</time>
      </trkpt>
      <trkpt lat="48.63195" lon="1.99501">
        <ele>128.1</ele>
        <time>2022-09-29T08:59:46Z</time>
      </trkpt>
      <trkpt lat="48.63187" lon="1.99493">
        <ele>127.9</ele>
        <time>2022-09-29T08:59:53Z</time>
      </trkpt>
      <trkpt lat="48.63179" lon="1.99486">
        <ele>127.5</ele>
        <time>2022-09-29T08:59:59Z</time>
      </trkpt>
      <trkpt lat="48.6317" lon="1.99482">
        <ele>126.8</ele>
        <time>2022-09-29T09:00:05Z</time>
      </trkpt>
      <trkpt lat="48.63161" lon="1.99474">
        <ele>125.7</ele>
        <time>2022-09-29T09:00:11Z</time>
      </trkpt>
      <trkpt lat="48.63153" lon="1.99465">
        <ele>125</ele>
        <time>2022-09-29T09:00:18Z</time>
      </trkpt>
      <trkpt lat="48.63144" lon="1.99457">
        <ele>124.4</ele>
        <time>2022-09-29T09:00:25Z</time>
      </trkpt>
      <trkpt lat="48.63137" lon="1.99448">
        <ele>123.9</ele>
        <time>2022-09-29T09:00:30Z</time>
      </trkpt>
      <trkpt lat="48.6313" lon="1.99438">
        <ele>123.4</ele>
        <time>2022-09-29T09:00:35Z</time>
      </trkpt>
      <trkpt lat="48.63124" lon="1.99426">
        <ele>122.9</ele>
        <time>2022-09-29T09:00:43Z</time>
      </trkpt>
      <trkpt lat="48.63118" lon="1.99415">
        <ele>122.5</ele>
        <time>2022-09-29T09:00:51Z</time>
      </trkpt>
      <trkpt lat="48.63113" lon="1.99404">
        <ele>122.1</ele>
        <time>2022-09-29T09:00:57Z</time>
      </trkpt>
      <trkpt lat="48.63109" lon="1.9939">
        <ele>121.9</ele>
        <time>2022-09-29T09:01:04Z</time>
      </trkpt>
      <trkpt lat="48.63103" lon="1.9938">
        <ele>121.4</ele>
        <time>2022-09-29T09:01:10Z</time>
      </trkpt>
      <trkpt lat="48.63097" lon="1.99367">
        <ele>121</ele>
        <time>2022-09-29T09:01:16Z</time>
      </trkpt>
      <trkpt lat="48.6309" lon="1.99356">
        <ele>120.5</ele>
        <time>2022-09-29T09:01:22Z</time>
      </trkpt>
      <trkpt lat="48.63085" lon="1.99344">
        <ele>120.2</ele>
        <time>2022-09-29T09:01:29Z</time>
      </trkpt>
      <trkpt lat="48.63079" lon="1.99334">
        <ele>119.7</ele>
        <time>2022-09-29T09:01:35Z</time>
      </trkpt>
      <trkpt lat="48.63072" lon="1.99324">
        <ele>119.2</ele>
        <time>2022-09-29T09:01:42Z</time>
      </trkpt>
      <trkpt lat="48.63064" lon="1.99318">
        <ele>118.6</ele>
        <time>2022-09-29T09:02:19Z</time>
      </trkpt>
      <trkpt lat="48.6306" lon="1.99331">
        <ele>118.3</ele>
        <time>2022-09-29T09:02:27Z</time>
      </trkpt>
      <trkpt lat="48.63057" lon="1.99344">
        <ele>118.1</ele>
        <time>2022-09-29T09:02:34Z</time>
      </trkpt>
      <trkpt lat="48.63053" lon="1.99358">
        <ele>117.8</ele>
        <time>2022-09-29T09:02:43Z</time>
      </trkpt>
      <trkpt lat="48.63047" lon="1.9937">
        <ele>117.4</ele>
        <time>2022-09-29T09:02:51Z</time>
      </trkpt>
      <trkpt lat="48.63041" lon="1.99381">
        <ele>117</ele>
        <time>2022-09-29T09:02:59Z</time>
      </trkpt>
      <trkpt lat="48.63036" lon="1.99393">
        <ele>116.7</ele>
        <time>2022-09-29T09:03:10Z</time>
      </trkpt>
      <trkpt lat="48.63028" lon="1.99398">
        <ele>116.3</ele>
        <time>2022-09-29T09:03:24Z</time>
      </trkpt>
      <trkpt lat="48.63021" lon="1.99411">
        <ele>116.6</ele>
        <time>2022-09-29T09:03:32Z</time>
      </trkpt>
      <trkpt lat="48.63016" lon="1.99422">
        <ele>116.7</ele>
        <time>2022-09-29T09:03:37Z</time>
      </trkpt>
      <trkpt lat="48.6301" lon="1.99434">
        <ele>116.6</ele>
        <time>2022-09-29T09:03:44Z</time>
      </trkpt>
      <trkpt lat="48.63003" lon="1.99445">
        <ele>116.3</ele>
        <time>2022-09-29T09:03:51Z</time>
      </trkpt>
      <trkpt lat="48.62997" lon="1.99455">
        <ele>116.2</ele>
        <time>2022-09-29T09:03:59Z</time>
      </trkpt>
      <trkpt lat="48.6299" lon="1.99466">
        <ele>116.1</ele>
        <time>2022-09-29T09:04:06Z</time>
      </trkpt>
      <trkpt lat="48.62985" lon="1.99479">
        <ele>116.3</ele>
        <time>2022-09-29T09:04:13Z</time>
      </trkpt>
      <trkpt lat="48.62981" lon="1.99492">
        <ele>116.6</ele>
        <time>2022-09-29T09:04:20Z</time>
      </trkpt>
      <trkpt lat="48.62975" lon="1.99506">
        <ele>116.8</ele>
        <time>2022-09-29T09:04:27Z</time>
      </trkpt>
      <trkpt lat="48.62969" lon="1.99516">
        <ele>116.9</ele>
        <time>2022-09-29T09:04:33Z</time>
      </trkpt>
      <trkpt lat="48.62964" lon="1.99527">
        <ele>117.1</ele>
        <time>2022-09-29T09:04:39Z</time>
      </trkpt>
      <trkpt lat="48.62957" lon="1.99538">
        <ele>116.9</ele>
        <time>2022-09-29T09:04:46Z</time>
      </trkpt>
      <trkpt lat="48.62951" lon="1.9955">
        <ele>116.7</ele>
        <time>2022-09-29T09:04:52Z</time>
      </trkpt>
      <trkpt lat="48.62943" lon="1.99555">
        <ele>115.9</ele>
        <time>2022-09-29T09:05:00Z</time>
      </trkpt>
      <trkpt lat="48.62933" lon="1.99558">
        <ele>115.6</ele>
        <time>2022-09-29T09:05:08Z</time>
      </trkpt>
      <trkpt lat="48.62924" lon="1.99557">
        <ele>115.3</ele>
        <time>2022-09-29T09:05:16Z</time>
      </trkpt>
      <trkpt lat="48.62913" lon="1.99555">
        <ele>115</ele>
        <time>2022-09-29T09:05:24Z</time>
      </trkpt>
      <trkpt lat="48.62904" lon="1.99554">
        <ele>115</ele>
        <time>2022-09-29T09:05:31Z</time>
      </trkpt>
      <trkpt lat="48.62893" lon="1.99554">
        <ele>114.9</ele>
        <time>2022-09-29T09:05:39Z</time>
      </trkpt>
      <trkpt lat="48.62883" lon="1.99553">
        <ele>115.3</ele>
        <time>2022-09-29T09:05:46Z</time>
      </trkpt>
      <trkpt lat="48.62873" lon="1.99552">
        <ele>116</ele>
        <time>2022-09-29T09:05:52Z</time>
      </trkpt>
      <trkpt lat="48.62864" lon="1.99551">
        <ele>116.6</ele>
        <time>2022-09-29T09:05:58Z</time>
      </trkpt>
      <trkpt lat="48.62854" lon="1.9955">
        <ele>117.3</ele>
        <time>2022-09-29T09:06:05Z</time>
      </trkpt>
      <trkpt lat="48.62844" lon="1.9955">
        <ele>118</ele>
        <time>2022-09-29T09:06:12Z</time>
      </trkpt>
      <trkpt lat="48.62834" lon="1.99548">
        <ele>118.6</ele>
        <time>2022-09-29T09:06:20Z</time>
      </trkpt>
      <trkpt lat="48.62825" lon="1.99545">
        <ele>119.1</ele>
        <time>2022-09-29T09:06:27Z</time>
      </trkpt>
      <trkpt lat="48.62814" lon="1.99543">
        <ele>119.6</ele>
        <time>2022-09-29T09:06:33Z</time>
      </trkpt>
      <trkpt lat="48.62805" lon="1.99544">
        <ele>120.1</ele>
        <time>2022-09-29T09:06:39Z</time>
      </trkpt>
      <trkpt lat="48.62796" lon="1.99542">
        <ele>120.4</ele>
        <time>2022-09-29T09:06:45Z</time>
      </trkpt>
      <trkpt lat="48.62787" lon="1.99537">
        <ele>120.3</ele>
        <time>2022-09-29T09:06:51Z</time>
      </trkpt>
      <trkpt lat="48.62778" lon="1.99537">
        <ele>120.6</ele>
        <time>2022-09-29T09:06:58Z</time>
      </trkpt>
      <trkpt lat="48.62768" lon="1.99537">
        <ele>120.4</ele>
        <time>2022-09-29T09:07:05Z</time>
      </trkpt>
      <trkpt lat="48.62759" lon="1.99536">
        <ele>120.1</ele>
        <time>2022-09-29T09:07:11Z</time>
      </trkpt>
      <trkpt lat="48.62749" lon="1.99534">
        <ele>119.6</ele>
        <time>2022-09-29T09:07:18Z</time>
      </trkpt>
      <trkpt lat="48.62739" lon="1.99534">
        <ele>118.7</ele>
        <time>2022-09-29T09:07:25Z</time>
      </trkpt>
      <trkpt lat="48.6273" lon="1.99533">
        <ele>117.6</ele>
        <time>2022-09-29T09:07:31Z</time>
      </trkpt>
      <trkpt lat="48.62721" lon="1.99532">
        <ele>116.7</ele>
        <time>2022-09-29T09:07:37Z</time>
      </trkpt>
      <trkpt lat="48.62712" lon="1.99533">
        <ele>116.6</ele>
        <time>2022-09-29T09:07:43Z</time>
      </trkpt>
      <trkpt lat="48.62703" lon="1.99533">
        <ele>116.2</ele>
        <time>2022-09-29T09:07:49Z</time>
      </trkpt>
      <trkpt lat="48.62693" lon="1.99532">
        <ele>115.8</ele>
        <time>2022-09-29T09:07:55Z</time>
      </trkpt>
      <trkpt lat="48.62683" lon="1.99533">
        <ele>115.4</ele>
        <time>2022-09-29T09:08:01Z</time>
      </trkpt>
      <trkpt lat="48.62674" lon="1.99535">
        <ele>115.4</ele>
        <time>2022-09-29T09:08:07Z</time>
      </trkpt>
      <trkpt lat="48.62665" lon="1.9954">
        <ele>115.8</ele>
        <time>2022-09-29T09:08:13Z</time>
      </trkpt>
      <trkpt lat="48.62655" lon="1.9954">
        <ele>116</ele>
        <time>2022-09-29T09:08:21Z</time>
      </trkpt>
      <trkpt lat="48.62644" lon="1.9954">
        <ele>116.2</ele>
        <time>2022-09-29T09:08:29Z</time>
      </trkpt>
      <trkpt lat="48.62635" lon="1.99541">
        <ele>116.2</ele>
        <time>2022-09-29T09:08:36Z</time>
      </trkpt>
      <trkpt lat="48.62625" lon="1.99542">
        <ele>115.5</ele>
        <time>2022-09-29T09:08:44Z</time>
      </trkpt>
      <trkpt lat="48.62616" lon="1.99543">
        <ele>115</ele>
        <time>2022-09-29T09:08:50Z</time>
      </trkpt>
      <trkpt lat="48.62606" lon="1.9954">
        <ele>114.1</ele>
        <time>2022-09-29T09:08:57Z</time>
      </trkpt>
      <trkpt lat="48.62597" lon="1.99538">
        <ele>113.4</ele>
        <time>2022-09-29T09:09:03Z</time>
      </trkpt>
      <trkpt lat="48.62586" lon="1.99539">
        <ele>112.9</ele>
        <time>2022-09-29T09:09:09Z</time>
      </trkpt>
      <trkpt lat="48.62577" lon="1.99543">
        <ele>112.9</ele>
        <time>2022-09-29T09:09:16Z</time>
      </trkpt>
      <trkpt lat="48.62567" lon="1.99543">
        <ele>112.5</ele>
        <time>2022-09-29T09:09:22Z</time>
      </trkpt>
      <trkpt lat="48.62558" lon="1.99544">
        <ele>112.2</ele>
        <time>2022-09-29T09:09:29Z</time>
      </trkpt>
      <trkpt lat="48.62549" lon="1.99542">
        <ele>111.9</ele>
        <time>2022-09-29T09:09:36Z</time>
      </trkpt>
      <trkpt lat="48.62539" lon="1.99543">
        <ele>111.8</ele>
        <time>2022-09-29T09:09:44Z</time>
      </trkpt>
      <trkpt lat="48.62529" lon="1.99544">
        <ele>111.6</ele>
        <time>2022-09-29T09:09:52Z</time>
      </trkpt>
      <trkpt lat="48.6252" lon="1.99544">
        <ele>111.6</ele>
        <time>2022-09-29T09:09:59Z</time>
      </trkpt>
      <trkpt lat="48.62511" lon="1.99544">
        <ele>111.6</ele>
        <time>2022-09-29T09:10:06Z</time>
      </trkpt>
      <trkpt lat="48.62501" lon="1.99542">
        <ele>111.5</ele>
        <time>2022-09-29T09:10:14Z</time>
      </trkpt>
      <trkpt lat="48.62492" lon="1.9954">
        <ele>111.2</ele>
        <time>2022-09-29T09:10:21Z</time>
      </trkpt>
      <trkpt lat="48.62483" lon="1.99539">
        <ele>110.9</ele>
        <time>2022-09-29T09:10:28Z</time>
      </trkpt>
      <trkpt lat="48.62473" lon="1.9954">
        <ele>110.6</ele>
        <time>2022-09-29T09:10:36Z</time>
      </trkpt>
      <trkpt lat="48.62463" lon="1.99536">
        <ele>110.4</ele>
        <time>2022-09-29T09:10:44Z</time>
      </trkpt>
      <trkpt lat="48.62453" lon="1.9953">
        <ele>110.2</ele>
        <time>2022-09-29T09:10:52Z</time>
      </trkpt>
      <trkpt lat="48.62444" lon="1.99527">
        <ele>110</ele>
        <time>2022-09-29T09:10:59Z</time>
      </trkpt>
      <trkpt lat="48.62434" lon="1.99525">
        <ele>109.3</ele>
        <time>2022-09-29T09:11:07Z</time>
      </trkpt>
      <trkpt lat="48.62424" lon="1.99527">
        <ele>108.5</ele>
        <time>2022-09-29T09:11:13Z</time>
      </trkpt>
      <trkpt lat="48.62414" lon="1.99526">
        <ele>107.9</ele>
        <time>2022-09-29T09:11:20Z</time>
      </trkpt>
      <trkpt lat="48.62405" lon="1.9953">
        <ele>107.6</ele>
        <time>2022-09-29T09:11:27Z</time>
      </trkpt>
      <trkpt lat="48.62396" lon="1.99535">
        <ele>107.3</ele>
        <time>2022-09-29T09:11:35Z</time>
      </trkpt>
      <trkpt lat="48.6239" lon="1.99545">
        <ele>107</ele>
        <time>2022-09-29T09:12:12Z</time>
      </trkpt>
      <trkpt lat="48.62384" lon="1.99556">
        <ele>107</ele>
        <time>2022-09-29T09:12:18Z</time>
      </trkpt>
      <trkpt lat="48.62377" lon="1.99564">
        <ele>107</ele>
        <time>2022-09-29T09:12:24Z</time>
      </trkpt>
      <trkpt lat="48.62371" lon="1.99574">
        <ele>107</ele>
        <time>2022-09-29T09:12:30Z</time>
      </trkpt>
      <trkpt lat="48.62366" lon="1.99588">
        <ele>106.9</ele>
        <time>2022-09-29T09:12:37Z</time>
      </trkpt>
      <trkpt lat="48.62361" lon="1.996">
        <ele>106.4</ele>
        <time>2022-09-29T09:12:44Z</time>
      </trkpt>
      <trkpt lat="48.62355" lon="1.99612">
        <ele>106.2</ele>
        <time>2022-09-29T09:12:51Z</time>
      </trkpt>
      <trkpt lat="48.62349" lon="1.99625">
        <ele>106.7</ele>
        <time>2022-09-29T09:12:58Z</time>
      </trkpt>
      <trkpt lat="48.62343" lon="1.99636">
        <ele>107</ele>
        <time>2022-09-29T09:13:05Z</time>
      </trkpt>
      <trkpt lat="48.62337" lon="1.99647">
        <ele>107.5</ele>
        <time>2022-09-29T09:13:12Z</time>
      </trkpt>
      <trkpt lat="48.62328" lon="1.99653">
        <ele>108</ele>
        <time>2022-09-29T09:13:19Z</time>
      </trkpt>
      <trkpt lat="48.62318" lon="1.99656">
        <ele>108.2</ele>
        <time>2022-09-29T09:13:26Z</time>
      </trkpt>
      <trkpt lat="48.62309" lon="1.99661">
        <ele>108.6</ele>
        <time>2022-09-29T09:13:32Z</time>
      </trkpt>
      <trkpt lat="48.623" lon="1.99667">
        <ele>108.9</ele>
        <time>2022-09-29T09:13:39Z</time>
      </trkpt>
      <trkpt lat="48.62292" lon="1.99675">
        <ele>109.4</ele>
        <time>2022-09-29T09:13:46Z</time>
      </trkpt>
      <trkpt lat="48.62283" lon="1.99682">
        <ele>109.8</ele>
        <time>2022-09-29T09:13:53Z</time>
      </trkpt>
      <trkpt lat="48.62275" lon="1.99689">
        <ele>110.4</ele>
        <time>2022-09-29T09:13:59Z</time>
      </trkpt>
      <trkpt lat="48.62267" lon="1.99696">
        <ele>110.8</ele>
        <time>2022-09-29T09:14:06Z</time>
      </trkpt>
      <trkpt lat="48.62257" lon="1.99696">
        <ele>110.4</ele>
        <time>2022-09-29T09:14:14Z</time>
      </trkpt>
      <trkpt lat="48.6225" lon="1.99705">
        <ele>110.8</ele>
        <time>2022-09-29T09:14:22Z</time>
      </trkpt>
      <trkpt lat="48.62242" lon="1.99713">
        <ele>111.5</ele>
        <time>2022-09-29T09:14:29Z</time>
      </trkpt>
      <trkpt lat="48.62234" lon="1.99721">
        <ele>111.9</ele>
        <time>2022-09-29T09:14:36Z</time>
      </trkpt>
      <trkpt lat="48.62228" lon="1.99731">
        <ele>112.4</ele>
        <time>2022-09-29T09:14:45Z</time>
      </trkpt>
      <trkpt lat="48.62221" lon="1.99739">
        <ele>112.6</ele>
        <time>2022-09-29T09:14:51Z</time>
      </trkpt>
      <trkpt lat="48.62213" lon="1.99748">
        <ele>113</ele>
        <time>2022-09-29T09:14:58Z</time>
      </trkpt>
      <trkpt lat="48.62212" lon="1.99762">
        <ele>113.6</ele>
        <time>2022-09-29T09:15:04Z</time>
      </trkpt>
      <trkpt lat="48.62204" lon="1.99769">
        <ele>113.5</ele>
        <time>2022-09-29T09:15:11Z</time>
      </trkpt>
      <trkpt lat="48.62208" lon="1.99782">
        <ele>114.2</ele>
        <time>2022-09-29T09:15:23Z</time>
      </trkpt>
      <trkpt lat="48.6221" lon="1.99797">
        <ele>114.8</ele>
        <time>2022-09-29T09:15:31Z</time>
      </trkpt>
      <trkpt lat="48.62213" lon="1.99811">
        <ele>115.4</ele>
        <time>2022-09-29T09:15:38Z</time>
      </trkpt>
      <trkpt lat="48.62217" lon="1.99824">
        <ele>115.7</ele>
        <time>2022-09-29T09:15:44Z</time>
      </trkpt>
      <trkpt lat="48.62221" lon="1.99836">
        <ele>116.1</ele>
        <time>2022-09-29T09:15:51Z</time>
      </trkpt>
      <trkpt lat="48.62226" lon="1.9985">
        <ele>116.8</ele>
        <time>2022-09-29T09:15:58Z</time>
      </trkpt>
      <trkpt lat="48.6223" lon="1.99864">
        <ele>117.4</ele>
        <time>2022-09-29T09:16:05Z</time>
      </trkpt>
      <trkpt lat="48.62231" lon="1.9988">
        <ele>118</ele>
        <time>2022-09-29T09:16:14Z</time>
      </trkpt>
      <trkpt lat="48.62228" lon="1.99894">
        <ele>118.4</ele>
        <time>2022-09-29T09:16:21Z</time>
      </trkpt>
      <trkpt lat="48.62226" lon="1.99909">
        <ele>118.8</ele>
        <time>2022-09-29T09:16:29Z</time>
      </trkpt>
      <trkpt lat="48.62224" lon="1.99924">
        <ele>119</ele>
        <time>2022-09-29T09:16:36Z</time>
      </trkpt>
      <trkpt lat="48.62221" lon="1.99937">
        <ele>118.9</ele>
        <time>2022-09-29T09:16:43Z</time>
      </trkpt>
      <trkpt lat="48.62218" lon="1.9995">
        <ele>118.8</ele>
        <time>2022-09-29T09:16:51Z</time>
      </trkpt>
      <trkpt lat="48.62214" lon="1.99963">
        <ele>118.5</ele>
        <time>2022-09-29T09:16:59Z</time>
      </trkpt>
      <trkpt lat="48.6221" lon="1.99976">
        <ele>118.1</ele>
        <time>2022-09-29T09:17:07Z</time>
      </trkpt>
      <trkpt lat="48.62207" lon="1.99989">
        <ele>117.9</ele>
        <time>2022-09-29T09:17:15Z</time>
      </trkpt>
      <trkpt lat="48.62204" lon="2.00003">
        <ele>117.7</ele>
        <time>2022-09-29T09:17:23Z</time>
      </trkpt>
      <trkpt lat="48.62203" lon="2.00018">
        <ele>117.6</ele>
        <time>2022-09-29T09:17:30Z</time>
      </trkpt>
      <trkpt lat="48.62203" lon="2.00033">
        <ele>117.6</ele>
        <time>2022-09-29T09:17:36Z</time>
      </trkpt>
      <trkpt lat="48.62201" lon="2.00046">
        <ele>117.5</ele>
        <time>2022-09-29T09:17:42Z</time>
      </trkpt>
      <trkpt lat="48.62199" lon="2.00061">
        <ele>117.3</ele>
        <time>2022-09-29T09:17:48Z</time>
      </trkpt>
      <trkpt lat="48.62198" lon="2.00075">
        <ele>117.2</ele>
        <time>2022-09-29T09:17:54Z</time>
      </trkpt>
      <trkpt lat="48.62197" lon="2.00091">
        <ele>117.2</ele>
        <time>2022-09-29T09:18:01Z</time>
      </trkpt>
      <trkpt lat="48.62194" lon="2.00105">
        <ele>117</ele>
        <time>2022-09-29T09:18:08Z</time>
      </trkpt>
      <trkpt lat="48.62193" lon="2.0012">
        <ele>116.8</ele>
        <time>2022-09-29T09:18:14Z</time>
      </trkpt>
      <trkpt lat="48.62191" lon="2.00134">
        <ele>116.7</ele>
        <time>2022-09-29T09:18:20Z</time>
      </trkpt>
      <trkpt lat="48.62191" lon="2.0015">
        <ele>116.3</ele>
        <time>2022-09-29T09:18:26Z</time>
      </trkpt>
      <trkpt lat="48.62192" lon="2.00165">
        <ele>115.9</ele>
        <time>2022-09-29T09:18:34Z</time>
      </trkpt>
      <trkpt lat="48.6219" lon="2.0018">
        <ele>115.6</ele>
        <time>2022-09-29T09:18:42Z</time>
      </trkpt>
      <trkpt lat="48.62189" lon="2.00195">
        <ele>115.6</ele>
        <time>2022-09-29T09:18:49Z</time>
      </trkpt>
      <trkpt lat="48.62188" lon="2.00209">
        <ele>115.1</ele>
        <time>2022-09-29T09:18:55Z</time>
      </trkpt>
      <trkpt lat="48.62186" lon="2.00223">
        <ele>114.7</ele>
        <time>2022-09-29T09:19:02Z</time>
      </trkpt>
      <trkpt lat="48.62187" lon="2.00237">
        <ele>114.6</ele>
        <time>2022-09-29T09:19:10Z</time>
      </trkpt>
      <trkpt lat="48.62191" lon="2.0025">
        <ele>114.8</ele>
        <time>2022-09-29T09:19:24Z</time>
      </trkpt>
      <trkpt lat="48.62199" lon="2.00256">
        <ele>114.9</ele>
        <time>2022-09-29T09:19:33Z</time>
      </trkpt>
      <trkpt lat="48.62201" lon="2.00271">
        <ele>114.5</ele>
        <time>2022-09-29T09:19:42Z</time>
      </trkpt>
    </trkseg>
  </trk>
</gpx>